BAW1EU EGLL-SCEL
Flight info
| Callsign | BAW1EU |
|---|---|
| Flight time | 13h 17m |
| Altitude | 33000 |
| Route | GOGSI N621 SAM M195 LORKU DCT EBOMO DCT KORUL DCT RIPEL DCT GUNTI/M085F340 DCT 36N020W 33N025W 30N030W 23N040W DCT BUTUX/N0502F340 DCT 14N050W/N0500F360 10N055W DCT TRAPP UM527 TIM UL322 MNS UZ74 EGBEM/N0493F380 UZ74 RCO/N0495F370 UL309 GRAFO/N0492F380 UL309 EMPEX/N0487F390 UL309 LOA UQ814 LITUX UT293 ENTOP UQ815 SIMOK BAYOS9 |
| Aircraft | A35K/H-SDE2E3GHIJ3J4J5LM1ORWXY/LB1D1 |
Departure
| Time | 2026-05-05 05:21 |
|---|---|
| Airport | London Heathrow Airport (EGLL) |
Arrival
| Time | 2026-05-05 18:38 |
|---|---|
| Airport | Comodoro Arturo Merino Benítez International Airport (SCEL) |
| Time | Latitude | Longitude | Altitude | Speed | Heading |
|---|---|---|---|---|---|
| 2026-05-05 05:03 | 51.47133 | -0.48005 | 94 ft | 0 kts | 269° |
| 2026-05-05 05:13 | 51.47133 | -0.47999 | 90 ft | 3 kts | 269° |
| 2026-05-05 05:14 | 51.47133 | -0.47957 | 91 ft | 4 kts | 269° |
| 2026-05-05 05:14 | 51.47133 | -0.47921 | 93 ft | 3 kts | 268° |
| 2026-05-05 05:14 | 51.47139 | -0.47884 | 92 ft | 4 kts | 222° |
| 2026-05-05 05:14 | 51.47160 | -0.47870 | 90 ft | 3 kts | 180° |
| 2026-05-05 05:15 | 51.47187 | -0.47871 | 90 ft | 4 kts | 180° |
| 2026-05-05 05:15 | 51.47195 | -0.47871 | 90 ft | 0 kts | 180° |
| 2026-05-05 05:16 | 51.47171 | -0.47871 | 90 ft | 10 kts | 180° |
| 2026-05-05 05:17 | 51.47063 | -0.47870 | 93 ft | 17 kts | 180° |
| 2026-05-05 05:17 | 51.46940 | -0.47870 | 90 ft | 18 kts | 180° |
| 2026-05-05 05:17 | 51.46814 | -0.47870 | 90 ft | 18 kts | 180° |
| 2026-05-05 05:17 | 51.46749 | -0.47961 | 95 ft | 11 kts | 262° |
| 2026-05-05 05:18 | 51.46740 | -0.48132 | 91 ft | 18 kts | 267° |
| 2026-05-05 05:18 | 51.46738 | -0.48331 | 94 ft | 18 kts | 269° |
| 2026-05-05 05:18 | 51.46738 | -0.48533 | 91 ft | 18 kts | 270° |
| 2026-05-05 05:18 | 51.46706 | -0.48719 | 95 ft | 17 kts | 221° |
| 2026-05-05 05:19 | 51.46594 | -0.48772 | 93 ft | 18 kts | 193° |
| 2026-05-05 05:19 | 51.46491 | -0.48722 | 95 ft | 14 kts | 127° |
| 2026-05-05 05:19 | 51.46477 | -0.48575 | 94 ft | 14 kts | 89° |
| 2026-05-05 05:19 | 51.46478 | -0.48295 | 93 ft | 48 kts | 89° |
| 2026-05-05 05:20 | 51.46482 | -0.47449 | 91 ft | 102 kts | 90° |
| 2026-05-05 05:20 | 51.46487 | -0.46062 | 92 ft | 147 kts | 90° |
| 2026-05-05 05:20 | 51.46473 | -0.44267 | 232 ft | 172 kts | 89° |
| 2026-05-05 05:20 | 51.46430 | -0.42344 | 659 ft | 176 kts | 96° |
| 2026-05-05 05:21 | 51.45937 | -0.40563 | 1217 ft | 172 kts | 122° |
| 2026-05-05 05:21 | 51.45162 | -0.39014 | 1541 ft | 187 kts | 130° |
| 2026-05-05 05:21 | 51.44072 | -0.37675 | 1749 ft | 209 kts | 149° |
| 2026-05-05 05:21 | 51.42620 | -0.36908 | 1945 ft | 232 kts | 171° |
| 2026-05-05 05:22 | 51.40929 | -0.37064 | 2119 ft | 256 kts | 193° |
| 2026-05-05 05:22 | 51.39179 | -0.37898 | 2550 ft | 267 kts | 198° |
| 2026-05-05 05:22 | 51.37399 | -0.38853 | 3152 ft | 271 kts | 199° |
| 2026-05-05 05:22 | 51.35624 | -0.39888 | 3827 ft | 272 kts | 204° |
| 2026-05-05 05:23 | 51.33943 | -0.41276 | 4532 ft | 271 kts | 213° |
| 2026-05-05 05:23 | 51.32440 | -0.43076 | 5167 ft | 271 kts | 224° |
| 2026-05-05 05:23 | 51.31147 | -0.45268 | 5785 ft | 271 kts | 233° |
| 2026-05-05 05:23 | 51.30074 | -0.47744 | 6432 ft | 271 kts | 243° |
| 2026-05-05 05:24 | 51.29383 | -0.50536 | 7041 ft | 271 kts | 254° |
| 2026-05-05 05:24 | 51.28870 | -0.53411 | 7626 ft | 273 kts | 256° |
| 2026-05-05 05:24 | 51.28360 | -0.56397 | 8237 ft | 277 kts | 255° |
| 2026-05-05 05:24 | 51.27841 | -0.59319 | 8849 ft | 278 kts | 254° |
| 2026-05-05 05:25 | 51.27274 | -0.62288 | 9486 ft | 281 kts | 253° |
| 2026-05-05 05:25 | 51.26690 | -0.65283 | 10098 ft | 283 kts | 253° |
| 2026-05-05 05:25 | 51.26090 | -0.68348 | 10418 ft | 297 kts | 253° |
| 2026-05-05 05:25 | 51.25460 | -0.71570 | 10660 ft | 312 kts | 253° |
| 2026-05-05 05:26 | 51.24800 | -0.74948 | 10889 ft | 327 kts | 253° |
| 2026-05-05 05:26 | 51.24107 | -0.78490 | 11125 ft | 341 kts | 253° |
| 2026-05-05 05:26 | 51.23385 | -0.82174 | 11367 ft | 354 kts | 253° |
| 2026-05-05 05:26 | 51.22638 | -0.85984 | 11597 ft | 366 kts | 252° |
| 2026-05-05 05:27 | 51.21862 | -0.89928 | 11812 ft | 378 kts | 252° |
| 2026-05-05 05:27 | 51.21040 | -0.93972 | 12131 ft | 386 kts | 249° |
| 2026-05-05 05:27 | 51.18306 | -1.01435 | 12968 ft | 395 kts | 234° |
| 2026-05-05 05:28 | 51.16647 | -1.04878 | 13443 ft | 398 kts | 231° |
| 2026-05-05 05:28 | 51.14900 | -1.08315 | 13889 ft | 401 kts | 231° |
| 2026-05-05 05:28 | 51.13121 | -1.11774 | 14298 ft | 404 kts | 231° |
| 2026-05-05 05:28 | 51.11349 | -1.15249 | 14737 ft | 406 kts | 231° |
| 2026-05-05 05:29 | 51.09580 | -1.18770 | 15191 ft | 408 kts | 231° |
| 2026-05-05 05:29 | 51.07819 | -1.22317 | 15632 ft | 410 kts | 231° |
| 2026-05-05 05:29 | 51.06059 | -1.25898 | 16096 ft | 412 kts | 231° |
| 2026-05-05 05:29 | 51.04290 | -1.29501 | 16548 ft | 414 kts | 231° |
| 2026-05-05 05:30 | 51.02512 | -1.33122 | 17023 ft | 416 kts | 231° |
| 2026-05-05 05:30 | 51.00881 | -1.36950 | 17457 ft | 420 kts | 240° |
| 2026-05-05 05:30 | 50.99668 | -1.41194 | 17887 ft | 423 kts | 248° |
| 2026-05-05 05:30 | 50.98716 | -1.45647 | 18263 ft | 429 kts | 252° |
| 2026-05-05 05:31 | 50.97882 | -1.50210 | 18617 ft | 431 kts | 253° |
| 2026-05-05 05:31 | 50.97121 | -1.54759 | 19029 ft | 433 kts | 254° |
| 2026-05-05 05:31 | 50.96366 | -1.59405 | 19439 ft | 435 kts | 254° |
| 2026-05-05 05:31 | 50.95605 | -1.64067 | 19843 ft | 437 kts | 254° |
| 2026-05-05 05:32 | 50.94828 | -1.68746 | 20226 ft | 439 kts | 254° |
| 2026-05-05 05:32 | 50.94031 | -1.73452 | 20633 ft | 442 kts | 253° |
| 2026-05-05 05:32 | 50.93221 | -1.78172 | 21033 ft | 444 kts | 253° |
| 2026-05-05 05:32 | 50.92400 | -1.82911 | 21444 ft | 446 kts | 253° |
| 2026-05-05 05:33 | 50.91582 | -1.87604 | 21853 ft | 449 kts | 253° |
| 2026-05-05 05:33 | 50.90746 | -1.92381 | 22214 ft | 453 kts | 253° |
| 2026-05-05 05:33 | 50.89899 | -1.97212 | 22603 ft | 455 kts | 253° |
| 2026-05-05 05:33 | 50.89049 | -2.02062 | 23050 ft | 458 kts | 253° |
| 2026-05-05 05:34 | 50.88195 | -2.06937 | 23474 ft | 460 kts | 253° |
| 2026-05-05 05:34 | 50.87333 | -2.11830 | 23837 ft | 462 kts | 252° |
| 2026-05-05 05:34 | 50.86464 | -2.16736 | 24218 ft | 463 kts | 252° |
| 2026-05-05 05:34 | 50.85590 | -2.21654 | 24607 ft | 464 kts | 252° |
| 2026-05-05 05:35 | 50.84714 | -2.26577 | 24973 ft | 466 kts | 252° |
| 2026-05-05 05:35 | 50.83832 | -2.31519 | 25337 ft | 467 kts | 252° |
| 2026-05-05 05:35 | 50.82945 | -2.36477 | 25693 ft | 469 kts | 252° |
| 2026-05-05 05:35 | 50.82061 | -2.41406 | 26012 ft | 471 kts | 252° |
| 2026-05-05 05:36 | 50.81162 | -2.46406 | 26375 ft | 473 kts | 251° |
| 2026-05-05 05:36 | 50.80260 | -2.51414 | 26734 ft | 474 kts | 252° |
| 2026-05-05 05:36 | 50.79509 | -2.56502 | 27086 ft | 477 kts | 256° |
| 2026-05-05 05:36 | 50.78860 | -2.61645 | 27414 ft | 479 kts | 256° |
| 2026-05-05 05:37 | 50.78240 | -2.66830 | 27756 ft | 480 kts | 257° |
| 2026-05-05 05:37 | 50.77636 | -2.72037 | 28068 ft | 482 kts | 257° |
| 2026-05-05 05:37 | 50.77041 | -2.77199 | 28375 ft | 483 kts | 257° |
| 2026-05-05 05:37 | 50.76436 | -2.82432 | 28671 ft | 485 kts | 257° |
| 2026-05-05 05:38 | 50.75195 | -2.93044 | 29048 ft | 492 kts | 257° |
| 2026-05-05 05:38 | 50.74569 | -2.98336 | 29560 ft | 489 kts | 257° |
| 2026-05-05 05:38 | 50.73945 | -3.03593 | 30037 ft | 486 kts | 257° |
| 2026-05-05 05:39 | 50.73318 | -3.08835 | 30362 ft | 486 kts | 257° |
| 2026-05-05 05:39 | 50.72689 | -3.14076 | 30613 ft | 486 kts | 257° |
| 2026-05-05 05:39 | 50.72056 | -3.19326 | 30867 ft | 487 kts | 257° |
| 2026-05-05 05:39 | 50.71420 | -3.24578 | 31123 ft | 487 kts | 257° |
| 2026-05-05 05:40 | 50.70779 | -3.29841 | 31354 ft | 489 kts | 257° |
| 2026-05-05 05:40 | 50.70133 | -3.35119 | 31502 ft | 491 kts | 257° |
| 2026-05-05 05:40 | 50.69485 | -3.40404 | 31748 ft | 490 kts | 257° |
| 2026-05-05 05:40 | 50.68836 | -3.45680 | 31991 ft | 490 kts | 257° |
| 2026-05-05 05:41 | 50.68183 | -3.50965 | 32223 ft | 491 kts | 257° |
| 2026-05-05 05:41 | 50.67528 | -3.56251 | 32448 ft | 491 kts | 257° |
| 2026-05-05 05:41 | 50.66871 | -3.61533 | 32649 ft | 491 kts | 257° |
| 2026-05-05 05:41 | 50.66219 | -3.66749 | 32847 ft | 492 kts | 257° |
| 2026-05-05 05:42 | 50.65554 | -3.72042 | 33046 ft | 492 kts | 258° |
| 2026-05-05 05:42 | 50.64887 | -3.77332 | 33213 ft | 492 kts | 258° |
| 2026-05-05 05:42 | 50.64217 | -3.82629 | 33377 ft | 493 kts | 258° |
| 2026-05-05 05:42 | 50.63544 | -3.87929 | 33549 ft | 493 kts | 258° |
| 2026-05-05 05:43 | 50.63089 | -3.91507 | 33669 ft | 494 kts | 258° |
| 2026-05-05 05:43 | 50.62186 | -3.98530 | 33901 ft | 494 kts | 258° |
| 2026-05-05 05:43 | 50.60990 | -4.07356 | 34003 ft | 498 kts | 257° |
| 2026-05-05 05:44 | 50.59499 | -4.18088 | 34004 ft | 501 kts | 257° |
| 2026-05-05 05:44 | 50.58006 | -4.28810 | 34004 ft | 501 kts | 257° |
| 2026-05-05 05:45 | 50.56524 | -4.39444 | 34017 ft | 501 kts | 257° |
| 2026-05-05 05:45 | 50.55026 | -4.50151 | 34007 ft | 501 kts | 257° |
| 2026-05-05 05:46 | 50.53517 | -4.60850 | 34006 ft | 501 kts | 257° |
| 2026-05-05 05:46 | 50.51996 | -4.71548 | 34011 ft | 501 kts | 258° |
| 2026-05-05 05:47 | 50.50466 | -4.82238 | 34020 ft | 502 kts | 258° |
| 2026-05-05 05:47 | 50.48927 | -4.92926 | 34021 ft | 502 kts | 257° |
| 2026-05-05 05:48 | 50.47376 | -5.03616 | 34020 ft | 502 kts | 257° |
| 2026-05-05 05:48 | 50.45825 | -5.14234 | 34020 ft | 502 kts | 257° |
| 2026-05-05 05:49 | 50.44245 | -5.24967 | 34017 ft | 502 kts | 257° |
| 2026-05-05 05:49 | 50.42677 | -5.35555 | 34014 ft | 502 kts | 257° |
| 2026-05-05 05:50 | 50.41085 | -5.46225 | 34010 ft | 502 kts | 257° |
| 2026-05-05 05:50 | 50.39485 | -5.56877 | 34013 ft | 502 kts | 257° |
| 2026-05-05 05:51 | 50.37870 | -5.67554 | 34014 ft | 504 kts | 257° |
| 2026-05-05 05:51 | 50.36243 | -5.78248 | 34015 ft | 505 kts | 257° |
| 2026-05-05 05:52 | 50.34602 | -5.88955 | 34016 ft | 505 kts | 257° |
| 2026-05-05 05:52 | 50.32963 | -5.99584 | 34019 ft | 505 kts | 257° |
| 2026-05-05 05:53 | 50.31300 | -6.10291 | 34021 ft | 508 kts | 257° |
| 2026-05-05 05:53 | 50.29619 | -6.21048 | 34022 ft | 508 kts | 257° |
| 2026-05-05 05:54 | 50.27930 | -6.31780 | 34026 ft | 508 kts | 257° |
| 2026-05-05 05:54 | 50.26231 | -6.42511 | 34030 ft | 508 kts | 257° |
| 2026-05-05 05:55 | 50.24519 | -6.53241 | 34034 ft | 510 kts | 257° |
| 2026-05-05 05:55 | 50.22804 | -6.63935 | 34033 ft | 511 kts | 257° |
| 2026-05-05 05:56 | 50.21068 | -6.74691 | 34029 ft | 510 kts | 257° |
| 2026-05-05 05:56 | 50.19322 | -6.85430 | 34039 ft | 510 kts | 257° |
| 2026-05-05 05:57 | 50.17565 | -6.96173 | 34038 ft | 511 kts | 257° |
| 2026-05-05 05:57 | 50.15797 | -7.06915 | 34042 ft | 511 kts | 257° |
| 2026-05-05 05:58 | 50.14018 | -7.17652 | 34046 ft | 511 kts | 257° |
| 2026-05-05 05:58 | 50.12229 | -7.28387 | 34043 ft | 511 kts | 257° |
| 2026-05-05 05:59 | 50.10437 | -7.39062 | 34050 ft | 512 kts | 258° |
| 2026-05-05 05:59 | 50.08622 | -7.49814 | 34045 ft | 514 kts | 257° |
| 2026-05-05 06:00 | 50.06791 | -7.60602 | 34054 ft | 514 kts | 257° |
| 2026-05-05 06:00 | 50.04952 | -7.71364 | 34056 ft | 514 kts | 257° |
| 2026-05-05 06:01 | 50.03112 | -7.82057 | 34052 ft | 515 kts | 258° |
| 2026-05-05 06:01 | 50.01242 | -7.92845 | 34055 ft | 517 kts | 257° |
| 2026-05-05 06:02 | 49.98343 | -8.03115 | 34056 ft | 523 kts | 239° |
| 2026-05-05 06:02 | 49.94133 | -8.12341 | 34056 ft | 524 kts | 234° |
| 2026-05-05 06:03 | 49.89709 | -8.21288 | 34054 ft | 525 kts | 234° |
| 2026-05-05 06:03 | 49.85233 | -8.30273 | 34059 ft | 526 kts | 234° |
| 2026-05-05 06:04 | 49.80800 | -8.39235 | 34061 ft | 526 kts | 234° |
| 2026-05-05 06:04 | 49.76355 | -8.48238 | 34061 ft | 526 kts | 234° |
| 2026-05-05 06:05 | 49.71911 | -8.57216 | 34064 ft | 526 kts | 234° |
| 2026-05-05 06:05 | 49.67447 | -8.66198 | 34064 ft | 525 kts | 234° |
| 2026-05-05 06:06 | 49.63016 | -8.75085 | 34075 ft | 525 kts | 234° |
| 2026-05-05 06:06 | 49.58543 | -8.84024 | 34072 ft | 526 kts | 234° |
| 2026-05-05 06:07 | 49.54063 | -8.92946 | 34070 ft | 526 kts | 234° |
| 2026-05-05 06:07 | 49.49566 | -9.01871 | 34060 ft | 526 kts | 234° |
| 2026-05-05 06:08 | 49.45111 | -9.10683 | 34071 ft | 524 kts | 234° |
| 2026-05-05 06:08 | 49.40628 | -9.19523 | 34068 ft | 524 kts | 234° |
| 2026-05-05 06:09 | 49.36131 | -9.28361 | 34077 ft | 525 kts | 234° |
| 2026-05-05 06:09 | 49.31620 | -9.37198 | 34072 ft | 527 kts | 234° |
| 2026-05-05 06:10 | 49.27087 | -9.46049 | 34072 ft | 527 kts | 234° |
| 2026-05-05 06:10 | 49.22575 | -9.54828 | 34072 ft | 527 kts | 234° |
| 2026-05-05 06:11 | 49.18030 | -9.63641 | 34078 ft | 527 kts | 234° |
| 2026-05-05 06:11 | 49.13479 | -9.72437 | 34078 ft | 527 kts | 234° |
| 2026-05-05 06:12 | 49.08949 | -9.81163 | 34082 ft | 526 kts | 234° |
| 2026-05-05 06:12 | 49.04388 | -9.89921 | 34078 ft | 527 kts | 234° |
| 2026-05-05 06:13 | 48.99815 | -9.98674 | 34083 ft | 527 kts | 234° |
| 2026-05-05 06:13 | 48.95266 | -10.07354 | 34086 ft | 527 kts | 234° |
| 2026-05-05 06:14 | 48.90681 | -10.16071 | 34082 ft | 526 kts | 234° |
| 2026-05-05 06:14 | 48.86105 | -10.24740 | 34089 ft | 523 kts | 234° |
| 2026-05-05 06:15 | 48.81569 | -10.33307 | 34092 ft | 524 kts | 234° |
| 2026-05-05 06:15 | 48.76978 | -10.41954 | 34094 ft | 525 kts | 234° |
| 2026-05-05 06:16 | 48.72047 | -10.50150 | 34082 ft | 529 kts | 222° |
| 2026-05-05 06:16 | 48.66110 | -10.56756 | 34100 ft | 527 kts | 216° |
| 2026-05-05 06:17 | 48.60049 | -10.62891 | 34097 ft | 527 kts | 215° |
| 2026-05-05 06:17 | 48.53913 | -10.69023 | 34100 ft | 530 kts | 215° |
| 2026-05-05 06:18 | 48.47761 | -10.75211 | 34102 ft | 532 kts | 216° |
| 2026-05-05 06:18 | 48.41650 | -10.81371 | 34105 ft | 532 kts | 216° |
| 2026-05-05 06:19 | 48.35502 | -10.87558 | 34098 ft | 526 kts | 216° |
| 2026-05-05 06:19 | 48.29425 | -10.93655 | 34103 ft | 524 kts | 216° |
| 2026-05-05 06:20 | 48.23392 | -10.99690 | 34104 ft | 524 kts | 216° |
| 2026-05-05 06:20 | 48.17306 | -11.05761 | 34104 ft | 524 kts | 216° |
| 2026-05-05 06:21 | 48.11261 | -11.11772 | 34122 ft | 524 kts | 216° |
| 2026-05-05 06:21 | 48.05165 | -11.17815 | 34119 ft | 525 kts | 216° |
| 2026-05-05 06:22 | 47.99086 | -11.23825 | 34113 ft | 522 kts | 216° |
| 2026-05-05 06:22 | 47.93013 | -11.29812 | 34120 ft | 522 kts | 216° |
| 2026-05-05 06:23 | 47.86965 | -11.35758 | 34134 ft | 522 kts | 216° |
| 2026-05-05 06:23 | 47.80870 | -11.41732 | 34110 ft | 526 kts | 216° |
| 2026-05-05 06:24 | 47.74785 | -11.47680 | 34114 ft | 524 kts | 216° |
| 2026-05-05 06:24 | 47.68700 | -11.53608 | 34120 ft | 521 kts | 216° |
| 2026-05-05 06:25 | 47.62624 | -11.59514 | 34117 ft | 521 kts | 216° |
| 2026-05-05 06:25 | 47.56579 | -11.65374 | 34122 ft | 523 kts | 216° |
| 2026-05-05 06:26 | 47.50470 | -11.71278 | 34120 ft | 524 kts | 216° |
| 2026-05-05 06:26 | 47.44357 | -11.77169 | 34116 ft | 522 kts | 216° |
| 2026-05-05 06:27 | 47.35264 | -11.85898 | 34122 ft | 521 kts | 216° |
| 2026-05-05 06:28 | 47.29209 | -11.91695 | 34123 ft | 522 kts | 216° |
| 2026-05-05 06:28 | 47.23100 | -11.97526 | 34126 ft | 522 kts | 216° |
| 2026-05-05 06:29 | 47.16993 | -12.03337 | 34128 ft | 522 kts | 216° |
| 2026-05-05 06:29 | 47.10902 | -12.09116 | 34128 ft | 520 kts | 216° |
| 2026-05-05 06:30 | 47.04866 | -12.14828 | 34132 ft | 519 kts | 216° |
| 2026-05-05 06:30 | 46.98796 | -12.20558 | 34132 ft | 519 kts | 216° |
| 2026-05-05 06:31 | 46.93736 | -12.25322 | 34135 ft | 519 kts | 215° |
| 2026-05-05 06:31 | 46.87650 | -12.31038 | 34134 ft | 521 kts | 216° |
| 2026-05-05 06:32 | 46.81543 | -12.36759 | 34136 ft | 519 kts | 215° |
| 2026-05-05 06:32 | 46.75478 | -12.42421 | 34141 ft | 516 kts | 215° |
| 2026-05-05 06:33 | 46.69424 | -12.48060 | 34144 ft | 516 kts | 216° |
| 2026-05-05 06:33 | 46.63379 | -12.53677 | 34138 ft | 518 kts | 215° |
| 2026-05-05 06:34 | 46.57292 | -12.59316 | 34141 ft | 518 kts | 215° |
| 2026-05-05 06:34 | 46.51204 | -12.64942 | 34138 ft | 518 kts | 215° |
| 2026-05-05 06:35 | 46.45115 | -12.70552 | 34143 ft | 519 kts | 216° |
| 2026-05-05 06:35 | 46.39020 | -12.76154 | 34141 ft | 521 kts | 216° |
| 2026-05-05 06:36 | 46.32897 | -12.81766 | 34143 ft | 521 kts | 215° |
| 2026-05-05 06:36 | 46.26753 | -12.87381 | 34143 ft | 521 kts | 215° |
| 2026-05-05 06:37 | 46.20668 | -12.92927 | 34147 ft | 518 kts | 215° |
| 2026-05-05 06:37 | 46.14576 | -12.98465 | 34150 ft | 518 kts | 215° |
| 2026-05-05 06:38 | 46.08463 | -13.04009 | 34155 ft | 518 kts | 215° |
| 2026-05-05 06:38 | 46.02359 | -13.09530 | 34151 ft | 518 kts | 215° |
| 2026-05-05 06:39 | 45.96291 | -13.15004 | 34156 ft | 518 kts | 215° |
| 2026-05-05 06:39 | 45.90203 | -13.20481 | 34162 ft | 514 kts | 215° |
| 2026-05-05 06:40 | 45.84146 | -13.25915 | 34154 ft | 513 kts | 215° |
| 2026-05-05 06:40 | 45.78092 | -13.31334 | 34167 ft | 513 kts | 215° |
| 2026-05-05 06:41 | 45.72026 | -13.36749 | 34159 ft | 514 kts | 215° |
| 2026-05-05 06:41 | 45.65978 | -13.42135 | 34144 ft | 514 kts | 214° |
| 2026-05-05 06:42 | 45.59927 | -13.47507 | 34163 ft | 510 kts | 214° |
| 2026-05-05 06:42 | 45.53928 | -13.52820 | 34172 ft | 510 kts | 215° |
| 2026-05-05 06:43 | 45.47880 | -13.58166 | 34172 ft | 511 kts | 214° |
| 2026-05-05 06:43 | 45.41825 | -13.63503 | 34173 ft | 511 kts | 214° |
| 2026-05-05 06:44 | 45.35772 | -13.68823 | 34166 ft | 511 kts | 214° |
| 2026-05-05 06:44 | 45.29744 | -13.74105 | 34177 ft | 507 kts | 214° |
| 2026-05-05 06:45 | 45.23770 | -13.79331 | 34176 ft | 507 kts | 214° |
| 2026-05-05 06:45 | 45.17748 | -13.84586 | 34181 ft | 507 kts | 214° |
| 2026-05-05 06:46 | 45.11730 | -13.89824 | 34179 ft | 507 kts | 214° |
| 2026-05-05 06:46 | 45.05749 | -13.95015 | 34177 ft | 507 kts | 214° |
| 2026-05-05 06:47 | 44.99999 | -14.00644 | 34181 ft | 499 kts | 225° |
| 2026-05-05 06:47 | 44.95248 | -14.07743 | 34184 ft | 495 kts | 232° |
| 2026-05-05 06:48 | 44.90792 | -14.15155 | 34184 ft | 495 kts | 233° |
| 2026-05-05 06:48 | 44.86371 | -14.22598 | 34179 ft | 495 kts | 233° |
| 2026-05-05 06:49 | 44.81935 | -14.29989 | 34197 ft | 492 kts | 233° |
| 2026-05-05 06:49 | 44.77494 | -14.37322 | 34194 ft | 492 kts | 232° |
| 2026-05-05 06:50 | 44.73074 | -14.44590 | 34197 ft | 492 kts | 232° |
| 2026-05-05 06:50 | 44.68611 | -14.51910 | 34183 ft | 491 kts | 232° |
| 2026-05-05 06:51 | 44.64170 | -14.59178 | 34196 ft | 489 kts | 232° |
| 2026-05-05 06:51 | 44.59759 | -14.66380 | 34205 ft | 489 kts | 232° |
| 2026-05-05 06:52 | 44.55316 | -14.73615 | 34199 ft | 489 kts | 232° |
| 2026-05-05 06:52 | 44.50873 | -14.80832 | 34191 ft | 489 kts | 232° |
| 2026-05-05 06:53 | 44.46461 | -14.87982 | 34223 ft | 486 kts | 232° |
| 2026-05-05 06:53 | 44.42033 | -14.95137 | 34201 ft | 485 kts | 232° |
| 2026-05-05 06:54 | 44.37598 | -15.02286 | 34225 ft | 485 kts | 232° |
| 2026-05-05 06:54 | 44.33183 | -15.09386 | 34204 ft | 486 kts | 232° |
| 2026-05-05 06:55 | 44.28735 | -15.16522 | 34212 ft | 485 kts | 231° |
| 2026-05-05 06:55 | 44.24334 | -15.23563 | 34214 ft | 484 kts | 231° |
| 2026-05-05 06:56 | 44.19902 | -15.30636 | 34216 ft | 484 kts | 231° |
| 2026-05-05 06:56 | 44.15469 | -15.37692 | 34219 ft | 484 kts | 231° |
| 2026-05-05 06:57 | 44.11027 | -15.44746 | 34222 ft | 484 kts | 231° |
| 2026-05-05 06:57 | 44.06608 | -15.51746 | 34221 ft | 484 kts | 231° |
| 2026-05-05 06:58 | 44.02154 | -15.58785 | 34222 ft | 484 kts | 231° |
| 2026-05-05 06:58 | 43.97704 | -15.65800 | 34224 ft | 484 kts | 231° |
| 2026-05-05 06:59 | 43.93255 | -15.72797 | 34224 ft | 482 kts | 231° |
| 2026-05-05 06:59 | 43.88845 | -15.79714 | 34221 ft | 481 kts | 231° |
| 2026-05-05 07:00 | 43.84396 | -15.86676 | 34232 ft | 481 kts | 231° |
| 2026-05-05 07:00 | 43.79951 | -15.93612 | 34236 ft | 481 kts | 231° |
| 2026-05-05 07:01 | 43.75505 | -16.00537 | 34226 ft | 481 kts | 231° |
| 2026-05-05 07:01 | 43.71088 | -16.07399 | 34236 ft | 480 kts | 230° |
| 2026-05-05 07:02 | 43.66635 | -16.14300 | 34235 ft | 479 kts | 230° |
| 2026-05-05 07:02 | 43.62192 | -16.21169 | 34243 ft | 479 kts | 230° |
| 2026-05-05 07:03 | 43.57745 | -16.28027 | 34244 ft | 479 kts | 230° |
| 2026-05-05 07:03 | 43.53293 | -16.34877 | 34233 ft | 479 kts | 230° |
| 2026-05-05 07:04 | 43.48872 | -16.41664 | 34246 ft | 478 kts | 230° |
| 2026-05-05 07:04 | 43.44424 | -16.48475 | 34246 ft | 478 kts | 230° |
| 2026-05-05 07:05 | 43.39972 | -16.55277 | 34249 ft | 478 kts | 230° |
| 2026-05-05 07:05 | 43.35507 | -16.62082 | 34248 ft | 478 kts | 230° |
| 2026-05-05 07:06 | 43.31045 | -16.68865 | 34254 ft | 478 kts | 230° |
| 2026-05-05 07:06 | 43.26580 | -16.75639 | 34254 ft | 478 kts | 230° |
| 2026-05-05 07:07 | 43.22139 | -16.82359 | 34255 ft | 478 kts | 230° |
| 2026-05-05 07:07 | 43.17663 | -16.89116 | 34255 ft | 478 kts | 230° |
| 2026-05-05 07:08 | 43.13185 | -16.95861 | 34258 ft | 478 kts | 229° |
| 2026-05-05 07:08 | 43.08699 | -17.02601 | 34260 ft | 478 kts | 229° |
| 2026-05-05 07:09 | 43.04231 | -17.09298 | 34262 ft | 479 kts | 230° |
| 2026-05-05 07:09 | 42.99729 | -17.16031 | 34262 ft | 479 kts | 229° |
| 2026-05-05 07:10 | 42.95229 | -17.22746 | 34265 ft | 479 kts | 230° |
| 2026-05-05 07:10 | 42.90744 | -17.29423 | 34265 ft | 480 kts | 230° |
| 2026-05-05 07:11 | 42.86234 | -17.36123 | 34270 ft | 480 kts | 229° |
| 2026-05-05 07:11 | 42.81714 | -17.42821 | 34268 ft | 481 kts | 229° |
| 2026-05-05 07:12 | 42.77171 | -17.49538 | 34276 ft | 483 kts | 229° |
| 2026-05-05 07:12 | 42.72611 | -17.56260 | 34276 ft | 483 kts | 229° |
| 2026-05-05 07:13 | 42.68049 | -17.62971 | 34275 ft | 483 kts | 229° |
| 2026-05-05 07:13 | 42.63482 | -17.69677 | 34274 ft | 483 kts | 229° |
| 2026-05-05 07:14 | 42.58910 | -17.76372 | 34281 ft | 483 kts | 229° |
| 2026-05-05 07:14 | 42.54347 | -17.83040 | 34285 ft | 485 kts | 229° |
| 2026-05-05 07:15 | 42.49745 | -17.89749 | 34274 ft | 486 kts | 229° |
| 2026-05-05 07:15 | 42.45143 | -17.96442 | 34294 ft | 486 kts | 229° |
| 2026-05-05 07:16 | 42.40532 | -18.03133 | 34274 ft | 486 kts | 229° |
| 2026-05-05 07:16 | 42.35918 | -18.09812 | 34275 ft | 485 kts | 229° |
| 2026-05-05 07:17 | 42.31299 | -18.16484 | 34289 ft | 487 kts | 229° |
| 2026-05-05 07:17 | 42.26667 | -18.23159 | 34288 ft | 487 kts | 229° |
| 2026-05-05 07:18 | 42.22814 | -18.28699 | 34288 ft | 487 kts | 229° |
| 2026-05-05 07:18 | 42.18172 | -18.35360 | 34293 ft | 487 kts | 229° |
| 2026-05-05 07:19 | 42.13519 | -18.42023 | 34285 ft | 487 kts | 229° |
| 2026-05-05 07:19 | 42.08872 | -18.48661 | 34291 ft | 488 kts | 229° |
| 2026-05-05 07:20 | 42.04235 | -18.55270 | 34294 ft | 489 kts | 228° |
| 2026-05-05 07:20 | 41.99560 | -18.61917 | 34292 ft | 489 kts | 228° |
| 2026-05-05 07:21 | 41.94882 | -18.68552 | 34296 ft | 489 kts | 228° |
| 2026-05-05 07:21 | 41.90206 | -18.75171 | 34297 ft | 489 kts | 228° |
| 2026-05-05 07:22 | 41.85520 | -18.81788 | 34285 ft | 489 kts | 228° |
| 2026-05-05 07:22 | 41.80829 | -18.88397 | 34296 ft | 489 kts | 228° |
| 2026-05-05 07:23 | 41.76138 | -18.94991 | 34296 ft | 489 kts | 228° |
| 2026-05-05 07:23 | 41.71442 | -19.01577 | 34297 ft | 489 kts | 228° |
| 2026-05-05 07:24 | 41.66772 | -19.08114 | 34298 ft | 489 kts | 228° |
| 2026-05-05 07:24 | 41.62070 | -19.14681 | 34299 ft | 490 kts | 228° |
| 2026-05-05 07:25 | 41.57349 | -19.21258 | 34295 ft | 490 kts | 228° |
| 2026-05-05 07:25 | 41.52624 | -19.27826 | 34300 ft | 490 kts | 228° |
| 2026-05-05 07:26 | 41.47901 | -19.34375 | 34300 ft | 490 kts | 228° |
| 2026-05-05 07:26 | 41.43173 | -19.40918 | 34297 ft | 490 kts | 228° |
| 2026-05-05 07:27 | 41.38441 | -19.47451 | 34295 ft | 490 kts | 227° |
| 2026-05-05 07:27 | 41.33704 | -19.53977 | 34303 ft | 491 kts | 227° |
| 2026-05-05 07:28 | 41.28989 | -19.60457 | 34303 ft | 488 kts | 227° |
| 2026-05-05 07:28 | 41.24274 | -19.66924 | 34303 ft | 487 kts | 227° |
| 2026-05-05 07:29 | 41.19558 | -19.73378 | 34303 ft | 487 kts | 227° |
| 2026-05-05 07:29 | 41.14832 | -19.79831 | 34303 ft | 487 kts | 227° |
| 2026-05-05 07:30 | 41.10097 | -19.86283 | 34306 ft | 488 kts | 227° |
| 2026-05-05 07:30 | 41.03002 | -19.95925 | 34311 ft | 489 kts | 227° |
| 2026-05-05 07:31 | 40.98036 | -20.02116 | 34306 ft | 491 kts | 223° |
| 2026-05-05 07:31 | 40.92804 | -20.07937 | 34311 ft | 491 kts | 221° |
| 2026-05-05 07:32 | 40.87531 | -20.13675 | 34305 ft | 491 kts | 221° |
| 2026-05-05 07:32 | 40.82225 | -20.19436 | 34311 ft | 493 kts | 221° |
| 2026-05-05 07:33 | 40.76958 | -20.25159 | 34310 ft | 491 kts | 221° |
| 2026-05-05 07:33 | 40.71673 | -20.30898 | 34311 ft | 490 kts | 221° |
| 2026-05-05 07:34 | 40.66435 | -20.36576 | 34311 ft | 490 kts | 221° |
| 2026-05-05 07:34 | 40.61166 | -20.42275 | 34311 ft | 490 kts | 221° |
| 2026-05-05 07:35 | 40.55890 | -20.47969 | 34305 ft | 490 kts | 221° |
| 2026-05-05 07:35 | 40.50607 | -20.53658 | 34316 ft | 490 kts | 221° |
| 2026-05-05 07:36 | 40.45326 | -20.59333 | 34313 ft | 490 kts | 221° |
| 2026-05-05 07:36 | 40.40043 | -20.64999 | 34313 ft | 490 kts | 221° |
| 2026-05-05 07:37 | 40.34760 | -20.70653 | 34310 ft | 490 kts | 221° |
| 2026-05-05 07:37 | 40.29474 | -20.76298 | 34316 ft | 490 kts | 221° |
| 2026-05-05 07:38 | 40.24213 | -20.81904 | 34307 ft | 489 kts | 221° |
| 2026-05-05 07:38 | 40.18917 | -20.87536 | 34314 ft | 490 kts | 221° |
| 2026-05-05 07:39 | 40.13648 | -20.93130 | 34317 ft | 491 kts | 221° |
| 2026-05-05 07:39 | 40.08343 | -20.98748 | 34317 ft | 491 kts | 221° |
| 2026-05-05 07:40 | 40.03032 | -21.04361 | 34314 ft | 491 kts | 221° |
| 2026-05-05 07:40 | 39.97726 | -21.09957 | 34314 ft | 490 kts | 221° |
| 2026-05-05 07:41 | 39.92412 | -21.15550 | 34308 ft | 490 kts | 221° |
| 2026-05-05 07:41 | 39.87118 | -21.21111 | 34313 ft | 492 kts | 221° |
| 2026-05-05 07:42 | 39.81781 | -21.26707 | 34313 ft | 492 kts | 221° |
| 2026-05-05 07:42 | 39.76440 | -21.32294 | 34304 ft | 492 kts | 221° |
| 2026-05-05 07:43 | 39.71098 | -21.37870 | 34314 ft | 492 kts | 221° |
| 2026-05-05 07:43 | 39.65761 | -21.43431 | 34317 ft | 492 kts | 221° |
| 2026-05-05 07:44 | 39.60454 | -21.48947 | 34328 ft | 492 kts | 221° |
| 2026-05-05 07:44 | 39.55090 | -21.54513 | 34303 ft | 495 kts | 221° |
| 2026-05-05 07:45 | 39.49710 | -21.60085 | 34317 ft | 495 kts | 221° |
| 2026-05-05 07:45 | 39.44333 | -21.65641 | 34303 ft | 494 kts | 221° |
| 2026-05-05 07:46 | 39.38954 | -21.71188 | 34320 ft | 494 kts | 221° |
| 2026-05-05 07:46 | 39.33567 | -21.76732 | 34317 ft | 494 kts | 221° |
| 2026-05-05 07:47 | 39.28184 | -21.82260 | 34310 ft | 495 kts | 221° |
| 2026-05-05 07:47 | 39.22773 | -21.87808 | 34308 ft | 497 kts | 221° |
| 2026-05-05 07:48 | 39.17393 | -21.93312 | 34315 ft | 496 kts | 221° |
| 2026-05-05 07:48 | 39.11979 | -21.98838 | 34312 ft | 496 kts | 221° |
| 2026-05-05 07:49 | 39.06563 | -22.04356 | 34315 ft | 496 kts | 221° |
| 2026-05-05 07:49 | 39.01145 | -22.09864 | 34314 ft | 496 kts | 220° |
| 2026-05-05 07:50 | 38.95724 | -22.15365 | 34311 ft | 496 kts | 220° |
| 2026-05-05 07:50 | 38.90312 | -22.20846 | 34312 ft | 495 kts | 220° |
| 2026-05-05 07:51 | 38.84903 | -22.26312 | 34307 ft | 495 kts | 220° |
| 2026-05-05 07:51 | 38.79521 | -22.31741 | 34309 ft | 495 kts | 220° |
| 2026-05-05 07:52 | 38.74100 | -22.37199 | 34309 ft | 495 kts | 220° |
| 2026-05-05 07:52 | 38.68677 | -22.42647 | 34299 ft | 495 kts | 220° |
| 2026-05-05 07:53 | 38.63266 | -22.48072 | 34311 ft | 494 kts | 220° |
| 2026-05-05 07:53 | 38.57831 | -22.53512 | 34311 ft | 496 kts | 220° |
| 2026-05-05 07:54 | 38.52388 | -22.58948 | 34311 ft | 496 kts | 220° |
| 2026-05-05 07:54 | 38.46986 | -22.64332 | 34312 ft | 496 kts | 220° |
| 2026-05-05 07:55 | 38.41533 | -22.69757 | 34311 ft | 496 kts | 220° |
| 2026-05-05 07:55 | 38.36083 | -22.75168 | 34309 ft | 496 kts | 220° |
| 2026-05-05 07:56 | 38.30629 | -22.80572 | 34307 ft | 497 kts | 220° |
| 2026-05-05 07:56 | 38.25173 | -22.85969 | 34303 ft | 500 kts | 220° |
| 2026-05-05 07:57 | 38.19682 | -22.91388 | 34307 ft | 500 kts | 220° |
| 2026-05-05 07:57 | 38.14188 | -22.96801 | 34305 ft | 499 kts | 220° |
| 2026-05-05 07:58 | 38.08714 | -23.02181 | 34305 ft | 497 kts | 220° |
| 2026-05-05 07:58 | 38.03252 | -23.07541 | 34304 ft | 496 kts | 220° |
| 2026-05-05 07:59 | 37.97785 | -23.12896 | 34302 ft | 497 kts | 220° |
| 2026-05-05 07:59 | 37.92292 | -23.18265 | 34308 ft | 499 kts | 220° |
| 2026-05-05 08:00 | 37.86792 | -23.23632 | 34305 ft | 498 kts | 220° |
| 2026-05-05 08:00 | 37.81309 | -23.28970 | 34310 ft | 497 kts | 220° |
| 2026-05-05 08:01 | 37.75856 | -23.34269 | 34309 ft | 497 kts | 220° |
| 2026-05-05 08:01 | 37.70364 | -23.39597 | 34302 ft | 497 kts | 220° |
| 2026-05-05 08:02 | 37.64877 | -23.44908 | 34312 ft | 498 kts | 220° |
| 2026-05-05 08:02 | 37.59362 | -23.50238 | 34289 ft | 498 kts | 220° |
| 2026-05-05 08:03 | 37.53877 | -23.55526 | 34308 ft | 494 kts | 220° |
| 2026-05-05 08:03 | 37.48454 | -23.60746 | 34306 ft | 494 kts | 220° |
| 2026-05-05 08:04 | 37.42987 | -23.66000 | 34310 ft | 494 kts | 220° |
| 2026-05-05 08:04 | 37.37518 | -23.71245 | 34311 ft | 494 kts | 220° |
| 2026-05-05 08:05 | 37.32048 | -23.76480 | 34299 ft | 494 kts | 220° |
| 2026-05-05 08:05 | 37.26586 | -23.81697 | 34301 ft | 492 kts | 220° |
| 2026-05-05 08:06 | 37.21137 | -23.86894 | 34298 ft | 492 kts | 220° |
| 2026-05-05 08:06 | 37.15685 | -23.92084 | 34298 ft | 492 kts | 220° |
| 2026-05-05 08:07 | 37.10264 | -23.97235 | 34298 ft | 492 kts | 220° |
| 2026-05-05 08:07 | 37.04807 | -24.02410 | 34294 ft | 492 kts | 220° |
| 2026-05-05 08:08 | 36.99381 | -24.07544 | 34295 ft | 486 kts | 220° |
| 2026-05-05 08:08 | 36.94881 | -24.11795 | 34301 ft | 488 kts | 220° |
| 2026-05-05 08:09 | 36.89448 | -24.16924 | 34292 ft | 489 kts | 220° |
| 2026-05-05 08:09 | 36.84007 | -24.22048 | 34292 ft | 489 kts | 220° |
| 2026-05-05 08:10 | 36.78576 | -24.27153 | 34292 ft | 489 kts | 220° |
| 2026-05-05 08:10 | 36.73171 | -24.32223 | 34296 ft | 487 kts | 220° |
| 2026-05-05 08:11 | 36.67765 | -24.37286 | 34295 ft | 486 kts | 220° |
| 2026-05-05 08:11 | 36.62349 | -24.42350 | 34292 ft | 488 kts | 220° |
| 2026-05-05 08:12 | 36.56895 | -24.47441 | 34292 ft | 490 kts | 220° |
| 2026-05-05 08:12 | 36.51436 | -24.52526 | 34292 ft | 490 kts | 220° |
| 2026-05-05 08:13 | 36.45978 | -24.57600 | 34289 ft | 489 kts | 220° |
| 2026-05-05 08:13 | 36.40534 | -24.62652 | 34290 ft | 488 kts | 220° |
| 2026-05-05 08:14 | 36.35129 | -24.67660 | 34290 ft | 488 kts | 220° |
| 2026-05-05 08:14 | 36.29682 | -24.72699 | 34289 ft | 490 kts | 220° |
| 2026-05-05 08:15 | 36.24201 | -24.77760 | 34286 ft | 493 kts | 220° |
| 2026-05-05 08:15 | 36.18697 | -24.82833 | 34285 ft | 492 kts | 219° |
| 2026-05-05 08:16 | 36.13203 | -24.87885 | 34285 ft | 491 kts | 219° |
| 2026-05-05 08:16 | 36.07711 | -24.92927 | 34281 ft | 491 kts | 219° |
| 2026-05-05 08:17 | 36.02219 | -24.97962 | 34281 ft | 491 kts | 219° |
| 2026-05-05 08:17 | 35.96835 | -25.03058 | 34271 ft | 490 kts | 223° |
| 2026-05-05 08:18 | 35.91730 | -25.08652 | 34278 ft | 492 kts | 225° |
| 2026-05-05 08:18 | 35.86668 | -25.14319 | 34274 ft | 489 kts | 225° |
| 2026-05-05 08:19 | 35.81580 | -25.19888 | 34278 ft | 489 kts | 224° |
| 2026-05-05 08:19 | 35.76456 | -25.25410 | 34281 ft | 489 kts | 224° |
| 2026-05-05 08:20 | 35.71352 | -25.30881 | 34277 ft | 489 kts | 224° |
| 2026-05-05 08:20 | 35.66217 | -25.36378 | 34277 ft | 489 kts | 224° |
| 2026-05-05 08:21 | 35.61074 | -25.41878 | 34288 ft | 489 kts | 224° |
| 2026-05-05 08:21 | 35.55925 | -25.47376 | 34273 ft | 490 kts | 224° |
| 2026-05-05 08:22 | 35.50778 | -25.52864 | 34280 ft | 490 kts | 224° |
| 2026-05-05 08:22 | 35.45632 | -25.58339 | 34282 ft | 490 kts | 224° |
| 2026-05-05 08:23 | 35.40480 | -25.63812 | 34276 ft | 490 kts | 224° |
| 2026-05-05 08:23 | 35.35301 | -25.69304 | 34277 ft | 495 kts | 224° |
| 2026-05-05 08:24 | 35.30093 | -25.74819 | 34271 ft | 495 kts | 224° |
| 2026-05-05 08:24 | 35.24920 | -25.80282 | 34274 ft | 493 kts | 224° |
| 2026-05-05 08:25 | 35.19717 | -25.85769 | 34272 ft | 493 kts | 223° |
| 2026-05-05 08:25 | 35.14513 | -25.91248 | 34274 ft | 493 kts | 223° |
| 2026-05-05 08:26 | 35.09307 | -25.96721 | 34260 ft | 494 kts | 224° |
| 2026-05-05 08:26 | 35.04060 | -26.02227 | 34270 ft | 499 kts | 223° |
| 2026-05-05 08:27 | 34.98801 | -26.07736 | 34270 ft | 497 kts | 223° |
| 2026-05-05 08:27 | 34.93591 | -26.13180 | 34268 ft | 495 kts | 223° |
| 2026-05-05 08:28 | 34.88364 | -26.18635 | 34266 ft | 495 kts | 223° |
| 2026-05-05 08:28 | 34.83136 | -26.24083 | 34265 ft | 495 kts | 223° |
| 2026-05-05 08:29 | 34.77891 | -26.29539 | 34268 ft | 499 kts | 223° |
| 2026-05-05 08:30 | 34.69918 | -26.37816 | 34268 ft | 500 kts | 223° |
| 2026-05-05 08:30 | 34.64647 | -26.43271 | 34265 ft | 496 kts | 223° |
| 2026-05-05 08:31 | 34.59398 | -26.48696 | 34260 ft | 495 kts | 223° |
| 2026-05-05 08:31 | 34.54176 | -26.54086 | 34262 ft | 496 kts | 223° |
| 2026-05-05 08:32 | 34.48916 | -26.59505 | 34259 ft | 498 kts | 223° |
| 2026-05-05 08:32 | 34.43614 | -26.64961 | 34255 ft | 501 kts | 223° |
| 2026-05-05 08:33 | 34.38296 | -26.70420 | 34254 ft | 499 kts | 223° |
| 2026-05-05 08:33 | 34.33005 | -26.75841 | 34244 ft | 497 kts | 223° |
| 2026-05-05 08:34 | 34.27711 | -26.81257 | 34253 ft | 497 kts | 223° |
| 2026-05-05 08:34 | 34.22458 | -26.86624 | 34248 ft | 498 kts | 223° |
| 2026-05-05 08:35 | 34.17141 | -26.92048 | 34243 ft | 504 kts | 223° |
| 2026-05-05 08:35 | 34.11747 | -26.97540 | 34250 ft | 507 kts | 223° |
| 2026-05-05 08:36 | 34.06371 | -27.03000 | 34246 ft | 503 kts | 223° |
| 2026-05-05 08:36 | 34.01032 | -27.08414 | 34246 ft | 501 kts | 223° |
| 2026-05-05 08:37 | 33.95697 | -27.13817 | 34244 ft | 501 kts | 223° |
| 2026-05-05 08:37 | 33.90354 | -27.19220 | 34238 ft | 502 kts | 223° |
| 2026-05-05 08:38 | 33.84943 | -27.24685 | 34239 ft | 512 kts | 223° |
| 2026-05-05 08:38 | 33.79468 | -27.30203 | 34242 ft | 512 kts | 223° |
| 2026-05-05 08:39 | 33.74074 | -27.35623 | 34239 ft | 505 kts | 222° |
| 2026-05-05 08:39 | 33.68693 | -27.41025 | 34238 ft | 504 kts | 222° |
| 2026-05-05 08:40 | 33.63312 | -27.46421 | 34238 ft | 504 kts | 222° |
| 2026-05-05 08:40 | 33.57898 | -27.51840 | 34235 ft | 510 kts | 223° |
| 2026-05-05 08:41 | 33.52392 | -27.57346 | 34234 ft | 518 kts | 223° |
| 2026-05-05 08:41 | 33.46890 | -27.62831 | 34233 ft | 515 kts | 222° |
| 2026-05-05 08:42 | 33.41434 | -27.68257 | 34229 ft | 507 kts | 222° |
| 2026-05-05 08:42 | 33.36002 | -27.73655 | 34229 ft | 506 kts | 222° |
| 2026-05-05 08:43 | 33.30575 | -27.79041 | 34219 ft | 508 kts | 223° |
| 2026-05-05 08:43 | 33.25083 | -27.84487 | 34228 ft | 517 kts | 223° |
| 2026-05-05 08:44 | 33.19533 | -27.89978 | 34221 ft | 522 kts | 222° |
| 2026-05-05 08:44 | 33.13940 | -27.95497 | 34220 ft | 519 kts | 222° |
| 2026-05-05 08:45 | 33.08378 | -28.00975 | 34220 ft | 518 kts | 222° |
| 2026-05-05 08:45 | 33.02810 | -28.06454 | 34220 ft | 518 kts | 222° |
| 2026-05-05 08:46 | 32.97264 | -28.11902 | 34217 ft | 523 kts | 222° |
| 2026-05-05 08:46 | 32.91589 | -28.17470 | 34216 ft | 529 kts | 222° |
| 2026-05-05 08:47 | 32.85909 | -28.23029 | 34210 ft | 529 kts | 222° |
| 2026-05-05 08:47 | 32.80229 | -28.28577 | 34210 ft | 527 kts | 222° |
| 2026-05-05 08:48 | 32.74562 | -28.34105 | 34210 ft | 526 kts | 222° |
| 2026-05-05 08:48 | 32.68900 | -28.39619 | 34210 ft | 527 kts | 222° |
| 2026-05-05 08:49 | 32.63263 | -28.45101 | 34213 ft | 527 kts | 222° |
| 2026-05-05 08:49 | 32.57586 | -28.50610 | 34209 ft | 527 kts | 222° |
| 2026-05-05 08:50 | 32.51899 | -28.56121 | 34210 ft | 527 kts | 222° |
| 2026-05-05 08:50 | 32.46210 | -28.61624 | 34201 ft | 528 kts | 222° |
| 2026-05-05 08:51 | 32.40520 | -28.67118 | 34188 ft | 528 kts | 222° |
| 2026-05-05 08:51 | 32.34778 | -28.72656 | 34202 ft | 537 kts | 222° |
| 2026-05-05 08:52 | 32.28980 | -28.78240 | 34202 ft | 543 kts | 222° |
| 2026-05-05 08:52 | 32.23114 | -28.83873 | 34200 ft | 542 kts | 222° |
| 2026-05-05 08:53 | 32.17282 | -28.89464 | 34196 ft | 539 kts | 222° |
| 2026-05-05 08:53 | 32.11451 | -28.95047 | 34193 ft | 538 kts | 222° |
| 2026-05-05 08:54 | 32.05602 | -29.00639 | 34190 ft | 545 kts | 223° |
| 2026-05-05 08:54 | 31.99692 | -29.06285 | 34186 ft | 553 kts | 223° |
| 2026-05-05 08:55 | 31.93706 | -29.11985 | 34184 ft | 553 kts | 223° |
| 2026-05-05 08:55 | 31.88732 | -29.16713 | 34183 ft | 551 kts | 222° |
| 2026-05-05 08:56 | 31.82776 | -29.22366 | 34181 ft | 550 kts | 222° |
| 2026-05-05 08:56 | 31.76813 | -29.28020 | 34179 ft | 553 kts | 223° |
| 2026-05-05 08:57 | 31.70771 | -29.33745 | 34180 ft | 563 kts | 223° |
| 2026-05-05 08:57 | 31.64652 | -29.39525 | 34180 ft | 563 kts | 223° |
| 2026-05-05 08:58 | 31.58541 | -29.45284 | 34177 ft | 562 kts | 223° |
| 2026-05-05 08:58 | 31.52450 | -29.51016 | 34178 ft | 561 kts | 223° |
| 2026-05-05 08:59 | 31.46358 | -29.56742 | 34176 ft | 563 kts | 223° |
| 2026-05-05 08:59 | 31.40232 | -29.62496 | 34174 ft | 572 kts | 223° |
| 2026-05-05 09:00 | 31.34018 | -29.68316 | 34173 ft | 572 kts | 223° |
| 2026-05-05 09:00 | 31.27789 | -29.74136 | 34180 ft | 572 kts | 223° |
| 2026-05-05 09:01 | 31.21569 | -29.79938 | 34176 ft | 570 kts | 223° |
| 2026-05-05 09:01 | 31.15373 | -29.85709 | 34171 ft | 570 kts | 224° |
| 2026-05-05 09:02 | 31.09175 | -29.91476 | 34170 ft | 569 kts | 224° |
| 2026-05-05 09:02 | 31.02980 | -29.97235 | 34172 ft | 569 kts | 225° |
| 2026-05-05 09:03 | 30.97636 | -30.03844 | 34172 ft | 555 kts | 239° |
| 2026-05-05 09:03 | 30.93054 | -30.10992 | 34170 ft | 551 kts | 242° |
| 2026-05-05 09:04 | 30.88609 | -30.18216 | 34183 ft | 545 kts | 242° |
| 2026-05-05 09:04 | 30.84200 | -30.25367 | 34162 ft | 543 kts | 242° |
| 2026-05-05 09:05 | 30.79765 | -30.32501 | 34173 ft | 543 kts | 242° |
| 2026-05-05 09:05 | 30.75345 | -30.39572 | 34158 ft | 544 kts | 242° |
| 2026-05-05 09:06 | 30.70893 | -30.46666 | 34162 ft | 540 kts | 242° |
| 2026-05-05 09:06 | 30.66487 | -30.53680 | 34167 ft | 539 kts | 242° |
| 2026-05-05 09:07 | 30.62065 | -30.60715 | 34162 ft | 539 kts | 242° |
| 2026-05-05 09:07 | 30.57636 | -30.67748 | 34167 ft | 539 kts | 242° |
| 2026-05-05 09:08 | 30.53208 | -30.74762 | 34165 ft | 536 kts | 242° |
| 2026-05-05 09:08 | 30.48805 | -30.81721 | 34164 ft | 534 kts | 242° |
| 2026-05-05 09:09 | 30.44439 | -30.88618 | 34161 ft | 534 kts | 242° |
| 2026-05-05 09:09 | 30.40036 | -30.95561 | 34162 ft | 534 kts | 242° |
| 2026-05-05 09:10 | 30.35631 | -31.02492 | 34164 ft | 533 kts | 242° |
| 2026-05-05 09:10 | 30.31229 | -31.09405 | 34168 ft | 532 kts | 242° |
| 2026-05-05 09:11 | 30.26854 | -31.16268 | 34161 ft | 532 kts | 242° |
| 2026-05-05 09:11 | 30.22450 | -31.23162 | 34162 ft | 533 kts | 242° |
| 2026-05-05 09:12 | 30.18043 | -31.30048 | 34168 ft | 533 kts | 242° |
| 2026-05-05 09:12 | 30.13647 | -31.36906 | 34148 ft | 533 kts | 242° |
| 2026-05-05 09:13 | 30.09223 | -31.43795 | 34161 ft | 532 kts | 242° |
| 2026-05-05 09:13 | 30.04831 | -31.50622 | 34159 ft | 531 kts | 242° |
| 2026-05-05 09:14 | 30.00416 | -31.57476 | 34163 ft | 532 kts | 242° |
| 2026-05-05 09:14 | 29.95982 | -31.64347 | 34161 ft | 532 kts | 242° |
| 2026-05-05 09:15 | 29.91578 | -31.71160 | 34163 ft | 533 kts | 242° |
| 2026-05-05 09:15 | 29.87142 | -31.78009 | 34160 ft | 532 kts | 242° |
| 2026-05-05 09:16 | 29.82702 | -31.84855 | 34154 ft | 533 kts | 242° |
| 2026-05-05 09:16 | 29.78258 | -31.91694 | 34161 ft | 533 kts | 242° |
| 2026-05-05 09:17 | 29.73843 | -31.98478 | 34161 ft | 533 kts | 242° |
| 2026-05-05 09:17 | 29.69389 | -32.05309 | 34159 ft | 532 kts | 241° |
| 2026-05-05 09:18 | 29.64962 | -32.12088 | 34162 ft | 533 kts | 241° |
| 2026-05-05 09:18 | 29.60504 | -32.18905 | 34160 ft | 533 kts | 241° |
| 2026-05-05 09:19 | 29.56036 | -32.25723 | 34159 ft | 533 kts | 241° |
| 2026-05-05 09:19 | 29.51567 | -32.32533 | 34162 ft | 533 kts | 241° |
| 2026-05-05 09:20 | 29.47085 | -32.39350 | 34156 ft | 534 kts | 241° |
| 2026-05-05 09:20 | 29.42627 | -32.46121 | 34156 ft | 534 kts | 241° |
| 2026-05-05 09:21 | 29.38145 | -32.52916 | 34162 ft | 534 kts | 241° |
| 2026-05-05 09:21 | 29.33649 | -32.59720 | 34162 ft | 534 kts | 241° |
| 2026-05-05 09:22 | 29.29156 | -32.66514 | 34146 ft | 533 kts | 240° |
| 2026-05-05 09:22 | 29.24674 | -32.73274 | 34158 ft | 532 kts | 240° |
| 2026-05-05 09:23 | 29.20222 | -32.79977 | 34155 ft | 531 kts | 240° |
| 2026-05-05 09:23 | 29.15736 | -32.86724 | 34156 ft | 531 kts | 240° |
| 2026-05-05 09:24 | 29.11281 | -32.93412 | 34160 ft | 531 kts | 239° |
| 2026-05-05 09:24 | 29.06799 | -33.00131 | 34159 ft | 531 kts | 239° |
| 2026-05-05 09:25 | 29.02309 | -33.06850 | 34156 ft | 531 kts | 239° |
| 2026-05-05 09:25 | 28.97839 | -33.13530 | 34156 ft | 531 kts | 239° |
| 2026-05-05 09:26 | 28.93339 | -33.20243 | 34155 ft | 532 kts | 239° |
| 2026-05-05 09:26 | 28.88838 | -33.26946 | 34156 ft | 532 kts | 239° |
| 2026-05-05 09:27 | 28.84333 | -33.33644 | 34155 ft | 532 kts | 239° |
| 2026-05-05 09:27 | 28.79842 | -33.40311 | 34157 ft | 532 kts | 239° |
| 2026-05-05 09:28 | 28.75319 | -33.47016 | 34156 ft | 533 kts | 238° |
| 2026-05-05 09:28 | 28.70785 | -33.53726 | 34157 ft | 533 kts | 238° |
| 2026-05-05 09:29 | 28.66282 | -33.60378 | 34157 ft | 533 kts | 238° |
| 2026-05-05 09:29 | 28.61744 | -33.67070 | 34156 ft | 533 kts | 238° |
| 2026-05-05 09:30 | 28.57210 | -33.73750 | 34160 ft | 534 kts | 238° |
| 2026-05-05 09:30 | 28.52667 | -33.80429 | 34159 ft | 534 kts | 238° |
| 2026-05-05 09:31 | 28.48138 | -33.87078 | 34156 ft | 534 kts | 238° |
| 2026-05-05 09:31 | 28.43578 | -33.93763 | 34153 ft | 533 kts | 238° |
| 2026-05-05 09:32 | 28.39059 | -34.00376 | 34153 ft | 533 kts | 238° |
| 2026-05-05 09:32 | 28.34500 | -34.07036 | 34160 ft | 533 kts | 237° |
| 2026-05-05 09:33 | 28.29943 | -34.13685 | 34157 ft | 533 kts | 237° |
| 2026-05-05 09:33 | 28.25385 | -34.20325 | 34157 ft | 533 kts | 237° |
| 2026-05-05 09:34 | 28.20824 | -34.26959 | 34156 ft | 533 kts | 237° |
| 2026-05-05 09:34 | 28.16257 | -34.33590 | 34156 ft | 533 kts | 237° |
| 2026-05-05 09:35 | 28.11721 | -34.40167 | 34157 ft | 533 kts | 237° |
| 2026-05-05 09:35 | 28.04862 | -34.50093 | 34148 ft | 533 kts | 237° |
| 2026-05-05 09:36 | 28.00285 | -34.56706 | 34151 ft | 533 kts | 237° |
| 2026-05-05 09:36 | 27.95702 | -34.63312 | 34165 ft | 533 kts | 237° |
| 2026-05-05 09:37 | 27.91112 | -34.69921 | 34148 ft | 534 kts | 236° |
| 2026-05-05 09:37 | 27.86529 | -34.76511 | 34156 ft | 534 kts | 236° |
| 2026-05-05 09:38 | 27.81967 | -34.83060 | 34159 ft | 533 kts | 236° |
| 2026-05-05 09:38 | 27.77372 | -34.89644 | 34159 ft | 533 kts | 236° |
| 2026-05-05 09:39 | 27.72783 | -34.96211 | 34159 ft | 533 kts | 236° |
| 2026-05-05 09:39 | 27.68182 | -35.02786 | 34156 ft | 533 kts | 236° |
| 2026-05-05 09:40 | 27.63575 | -35.09360 | 34148 ft | 533 kts | 236° |
| 2026-05-05 09:40 | 27.58996 | -35.15884 | 34159 ft | 535 kts | 235° |
| 2026-05-05 09:41 | 27.54367 | -35.22468 | 34163 ft | 535 kts | 235° |
| 2026-05-05 09:41 | 27.49730 | -35.29054 | 34157 ft | 535 kts | 235° |
| 2026-05-05 09:42 | 27.45121 | -35.35589 | 34161 ft | 535 kts | 235° |
| 2026-05-05 09:42 | 27.40480 | -35.42161 | 34165 ft | 535 kts | 235° |
| 2026-05-05 09:43 | 27.35870 | -35.48680 | 34157 ft | 535 kts | 235° |
| 2026-05-05 09:43 | 27.31232 | -35.55228 | 34157 ft | 534 kts | 234° |
| 2026-05-05 09:44 | 27.27376 | -35.60665 | 34159 ft | 534 kts | 234° |
| 2026-05-05 09:44 | 27.22734 | -35.67200 | 34158 ft | 534 kts | 234° |
| 2026-05-05 09:45 | 27.18094 | -35.73725 | 34167 ft | 534 kts | 234° |
| 2026-05-05 09:45 | 27.13483 | -35.80199 | 34159 ft | 534 kts | 234° |
| 2026-05-05 09:46 | 27.08831 | -35.86718 | 34159 ft | 535 kts | 234° |
| 2026-05-05 09:46 | 27.04177 | -35.93232 | 34159 ft | 535 kts | 234° |
| 2026-05-05 09:47 | 26.99513 | -35.99750 | 34162 ft | 535 kts | 234° |
| 2026-05-05 09:47 | 26.94858 | -36.06247 | 34162 ft | 534 kts | 233° |
| 2026-05-05 09:48 | 26.90226 | -36.12702 | 34162 ft | 534 kts | 233° |
| 2026-05-05 09:48 | 26.85565 | -36.19186 | 34162 ft | 534 kts | 233° |
| 2026-05-05 09:49 | 26.80895 | -36.25676 | 34162 ft | 534 kts | 233° |
| 2026-05-05 09:49 | 26.76229 | -36.32154 | 34160 ft | 533 kts | 233° |
| 2026-05-05 09:50 | 26.71569 | -36.38608 | 34159 ft | 533 kts | 233° |
| 2026-05-05 09:50 | 26.66917 | -36.45042 | 34159 ft | 533 kts | 233° |
| 2026-05-05 09:51 | 26.62273 | -36.51457 | 34162 ft | 533 kts | 233° |
| 2026-05-05 09:51 | 26.57602 | -36.57900 | 34162 ft | 533 kts | 233° |
| 2026-05-05 09:52 | 26.52926 | -36.64342 | 34159 ft | 533 kts | 233° |
| 2026-05-05 09:52 | 26.48252 | -36.70771 | 34159 ft | 533 kts | 233° |
| 2026-05-05 09:53 | 26.43608 | -36.77151 | 34155 ft | 534 kts | 233° |
| 2026-05-05 09:53 | 26.38921 | -36.83581 | 34156 ft | 535 kts | 233° |
| 2026-05-05 09:54 | 26.34218 | -36.90023 | 34160 ft | 535 kts | 233° |
| 2026-05-05 09:54 | 26.29503 | -36.96470 | 34157 ft | 535 kts | 232° |
| 2026-05-05 09:55 | 26.24793 | -37.02902 | 34155 ft | 534 kts | 232° |
| 2026-05-05 09:55 | 26.20119 | -37.09277 | 34160 ft | 533 kts | 232° |
| 2026-05-05 09:56 | 26.15423 | -37.15672 | 34162 ft | 533 kts | 232° |
| 2026-05-05 09:56 | 26.10725 | -37.22061 | 34162 ft | 533 kts | 232° |
| 2026-05-05 09:57 | 26.06024 | -37.28447 | 34162 ft | 533 kts | 232° |
| 2026-05-05 09:57 | 26.01323 | -37.34822 | 34162 ft | 533 kts | 232° |
| 2026-05-05 09:58 | 25.96625 | -37.41185 | 34162 ft | 533 kts | 232° |
| 2026-05-05 09:58 | 25.91917 | -37.47553 | 34159 ft | 532 kts | 231° |
| 2026-05-05 09:59 | 25.87247 | -37.53856 | 34162 ft | 531 kts | 232° |
| 2026-05-05 09:59 | 25.82551 | -37.60189 | 34162 ft | 530 kts | 232° |
| 2026-05-05 10:00 | 25.77856 | -37.66514 | 34162 ft | 531 kts | 232° |
| 2026-05-05 10:00 | 25.73162 | -37.72828 | 34161 ft | 531 kts | 232° |
| 2026-05-05 10:01 | 25.68463 | -37.79140 | 34161 ft | 530 kts | 232° |
| 2026-05-05 10:01 | 25.63792 | -37.85405 | 34160 ft | 530 kts | 232° |
| 2026-05-05 10:02 | 25.59092 | -37.91700 | 34161 ft | 530 kts | 232° |
| 2026-05-05 10:02 | 25.54392 | -37.97987 | 34160 ft | 528 kts | 231° |
| 2026-05-05 10:03 | 25.49730 | -38.04215 | 34160 ft | 523 kts | 231° |
| 2026-05-05 10:03 | 25.45078 | -38.10422 | 34159 ft | 523 kts | 231° |
| 2026-05-05 10:04 | 25.40429 | -38.16616 | 34160 ft | 523 kts | 231° |
| 2026-05-05 10:04 | 25.35776 | -38.22809 | 34161 ft | 522 kts | 232° |
| 2026-05-05 10:05 | 25.31139 | -38.28973 | 34161 ft | 521 kts | 231° |
| 2026-05-05 10:05 | 25.26531 | -38.35088 | 34160 ft | 521 kts | 231° |
| 2026-05-05 10:06 | 25.21888 | -38.41239 | 34159 ft | 521 kts | 231° |
| 2026-05-05 10:06 | 25.17244 | -38.47382 | 34160 ft | 520 kts | 232° |
| 2026-05-05 10:07 | 25.12602 | -38.53518 | 34159 ft | 520 kts | 233° |
| 2026-05-05 10:07 | 25.07981 | -38.59620 | 34162 ft | 520 kts | 233° |
| 2026-05-05 10:08 | 25.03337 | -38.65745 | 34163 ft | 520 kts | 233° |
| 2026-05-05 10:08 | 24.98692 | -38.71860 | 34161 ft | 521 kts | 233° |
| 2026-05-05 10:09 | 24.94029 | -38.77993 | 34164 ft | 521 kts | 233° |
| 2026-05-05 10:09 | 24.89395 | -38.84079 | 34165 ft | 521 kts | 233° |
| 2026-05-05 10:10 | 24.84738 | -38.90188 | 34165 ft | 521 kts | 233° |
| 2026-05-05 10:10 | 24.80059 | -38.96317 | 34164 ft | 521 kts | 233° |
| 2026-05-05 10:11 | 24.75420 | -39.02386 | 34164 ft | 521 kts | 233° |
| 2026-05-05 10:11 | 24.70744 | -39.08495 | 34164 ft | 521 kts | 233° |
| 2026-05-05 10:12 | 24.66069 | -39.14595 | 34163 ft | 521 kts | 233° |
| 2026-05-05 10:12 | 24.61396 | -39.20686 | 34166 ft | 521 kts | 233° |
| 2026-05-05 10:13 | 24.56717 | -39.26776 | 34165 ft | 521 kts | 233° |
| 2026-05-05 10:13 | 24.52062 | -39.32828 | 34165 ft | 521 kts | 233° |
| 2026-05-05 10:14 | 24.47376 | -39.38911 | 34171 ft | 520 kts | 233° |
| 2026-05-05 10:14 | 24.42703 | -39.44969 | 34175 ft | 520 kts | 233° |
| 2026-05-05 10:15 | 24.38049 | -39.50998 | 34172 ft | 520 kts | 233° |
| 2026-05-05 10:15 | 24.33361 | -39.57060 | 34147 ft | 520 kts | 233° |
| 2026-05-05 10:16 | 24.28679 | -39.63108 | 34163 ft | 517 kts | 233° |
| 2026-05-05 10:16 | 24.24048 | -39.69082 | 34167 ft | 517 kts | 233° |
| 2026-05-05 10:17 | 24.19384 | -39.75094 | 34166 ft | 517 kts | 233° |
| 2026-05-05 10:17 | 24.14720 | -39.81097 | 34157 ft | 517 kts | 232° |
| 2026-05-05 10:18 | 24.10085 | -39.87055 | 34167 ft | 516 kts | 232° |
| 2026-05-05 10:18 | 24.05410 | -39.93057 | 34165 ft | 516 kts | 232° |
| 2026-05-05 10:19 | 24.00743 | -39.99042 | 34166 ft | 516 kts | 232° |
| 2026-05-05 10:19 | 23.96131 | -40.05008 | 34156 ft | 516 kts | 233° |
| 2026-05-05 10:20 | 23.91542 | -40.11047 | 34162 ft | 516 kts | 233° |
| 2026-05-05 10:20 | 23.86953 | -40.17080 | 34167 ft | 516 kts | 233° |
| 2026-05-05 10:21 | 23.82380 | -40.23069 | 34167 ft | 516 kts | 233° |
| 2026-05-05 10:21 | 23.77768 | -40.29090 | 34166 ft | 516 kts | 233° |
| 2026-05-05 10:22 | 23.73154 | -40.35105 | 34168 ft | 516 kts | 233° |
| 2026-05-05 10:22 | 23.68567 | -40.41080 | 34167 ft | 516 kts | 233° |
| 2026-05-05 10:23 | 23.63947 | -40.47089 | 34168 ft | 516 kts | 233° |
| 2026-05-05 10:23 | 23.59320 | -40.53102 | 34166 ft | 516 kts | 233° |
| 2026-05-05 10:24 | 23.54720 | -40.59072 | 34171 ft | 516 kts | 233° |
| 2026-05-05 10:24 | 23.50089 | -40.65074 | 34168 ft | 516 kts | 233° |
| 2026-05-05 10:25 | 23.45482 | -40.71038 | 34157 ft | 516 kts | 233° |
| 2026-05-05 10:25 | 23.40858 | -40.77018 | 34169 ft | 516 kts | 233° |
| 2026-05-05 10:26 | 23.36224 | -40.83003 | 34169 ft | 516 kts | 233° |
| 2026-05-05 10:26 | 23.31598 | -40.88971 | 34172 ft | 516 kts | 233° |
| 2026-05-05 10:27 | 23.26966 | -40.94939 | 34169 ft | 516 kts | 233° |
| 2026-05-05 10:27 | 23.22349 | -41.00881 | 34171 ft | 517 kts | 233° |
| 2026-05-05 10:28 | 23.17694 | -41.06864 | 34169 ft | 517 kts | 233° |
| 2026-05-05 10:28 | 23.13041 | -41.12839 | 34167 ft | 517 kts | 233° |
| 2026-05-05 10:29 | 23.08411 | -41.18777 | 34170 ft | 517 kts | 233° |
| 2026-05-05 10:29 | 23.03760 | -41.24734 | 34170 ft | 517 kts | 233° |
| 2026-05-05 10:30 | 22.99096 | -41.30702 | 34172 ft | 517 kts | 233° |
| 2026-05-05 10:30 | 22.94441 | -41.36651 | 34182 ft | 517 kts | 233° |
| 2026-05-05 10:31 | 22.89809 | -41.42564 | 34166 ft | 517 kts | 232° |
| 2026-05-05 10:31 | 22.85142 | -41.48514 | 34184 ft | 517 kts | 232° |
| 2026-05-05 10:32 | 22.81270 | -41.53445 | 34166 ft | 517 kts | 232° |
| 2026-05-05 10:32 | 22.76600 | -41.59387 | 34178 ft | 516 kts | 232° |
| 2026-05-05 10:33 | 22.71957 | -41.65288 | 34161 ft | 516 kts | 232° |
| 2026-05-05 10:33 | 22.67294 | -41.71206 | 34170 ft | 516 kts | 232° |
| 2026-05-05 10:34 | 22.62617 | -41.77136 | 34170 ft | 516 kts | 232° |
| 2026-05-05 10:34 | 22.57981 | -41.83009 | 34171 ft | 516 kts | 232° |
| 2026-05-05 10:35 | 22.53308 | -41.88919 | 34171 ft | 516 kts | 232° |
| 2026-05-05 10:35 | 22.48634 | -41.94826 | 34170 ft | 516 kts | 232° |
| 2026-05-05 10:36 | 22.43965 | -42.00719 | 34166 ft | 516 kts | 232° |
| 2026-05-05 10:36 | 22.39322 | -42.06574 | 34171 ft | 516 kts | 232° |
| 2026-05-05 10:37 | 22.34646 | -42.12461 | 34172 ft | 515 kts | 232° |
| 2026-05-05 10:37 | 22.29965 | -42.18350 | 34170 ft | 515 kts | 232° |
| 2026-05-05 10:38 | 22.25285 | -42.24231 | 34170 ft | 516 kts | 232° |
| 2026-05-05 10:38 | 22.20632 | -42.30070 | 34169 ft | 516 kts | 232° |
| 2026-05-05 10:39 | 22.15944 | -42.35948 | 34171 ft | 516 kts | 232° |
| 2026-05-05 10:39 | 22.11252 | -42.41824 | 34165 ft | 516 kts | 232° |
| 2026-05-05 10:40 | 22.06556 | -42.47698 | 34173 ft | 516 kts | 232° |
| 2026-05-05 10:40 | 22.01897 | -42.53520 | 34170 ft | 516 kts | 232° |
| 2026-05-05 10:41 | 21.97193 | -42.59390 | 34170 ft | 517 kts | 232° |
| 2026-05-05 10:41 | 21.92494 | -42.65250 | 34172 ft | 517 kts | 232° |
| 2026-05-05 10:42 | 21.85428 | -42.74047 | 34172 ft | 517 kts | 232° |
| 2026-05-05 10:43 | 21.80717 | -42.79905 | 34177 ft | 517 kts | 231° |
| 2026-05-05 10:43 | 21.76032 | -42.85724 | 34177 ft | 518 kts | 231° |
| 2026-05-05 10:44 | 21.71301 | -42.91592 | 34171 ft | 518 kts | 231° |
| 2026-05-05 10:44 | 21.66580 | -42.97443 | 34170 ft | 518 kts | 231° |
| 2026-05-05 10:45 | 21.61870 | -43.03274 | 34146 ft | 518 kts | 231° |
| 2026-05-05 10:45 | 21.57144 | -43.09118 | 34170 ft | 517 kts | 231° |
| 2026-05-05 10:46 | 21.52417 | -43.14956 | 34166 ft | 517 kts | 231° |
| 2026-05-05 10:46 | 21.47689 | -43.20791 | 34168 ft | 517 kts | 231° |
| 2026-05-05 10:47 | 21.42977 | -43.26599 | 34170 ft | 518 kts | 231° |
| 2026-05-05 10:47 | 21.38261 | -43.32405 | 34167 ft | 517 kts | 231° |
| 2026-05-05 10:48 | 21.33521 | -43.38235 | 34167 ft | 517 kts | 231° |
| 2026-05-05 10:48 | 21.28784 | -43.44055 | 34163 ft | 517 kts | 231° |
| 2026-05-05 10:49 | 21.24042 | -43.49876 | 34167 ft | 518 kts | 231° |
| 2026-05-05 10:49 | 21.19292 | -43.55699 | 34167 ft | 518 kts | 231° |
| 2026-05-05 10:50 | 21.14548 | -43.61509 | 34169 ft | 518 kts | 231° |
| 2026-05-05 10:50 | 21.09825 | -43.67287 | 34167 ft | 518 kts | 231° |
| 2026-05-05 10:51 | 21.05068 | -43.73101 | 34167 ft | 519 kts | 231° |
| 2026-05-05 10:51 | 21.00303 | -43.78919 | 34168 ft | 519 kts | 231° |
| 2026-05-05 10:52 | 20.95543 | -43.84723 | 34163 ft | 519 kts | 231° |
| 2026-05-05 10:52 | 20.90772 | -43.90536 | 34165 ft | 519 kts | 231° |
| 2026-05-05 10:53 | 20.86024 | -43.96314 | 34170 ft | 519 kts | 231° |
| 2026-05-05 10:53 | 20.81252 | -44.02116 | 34171 ft | 519 kts | 231° |
| 2026-05-05 10:54 | 20.76476 | -44.07916 | 34166 ft | 520 kts | 231° |
| 2026-05-05 10:54 | 20.71686 | -44.13728 | 34172 ft | 520 kts | 231° |
| 2026-05-05 10:55 | 20.66932 | -44.19489 | 34170 ft | 520 kts | 231° |
| 2026-05-05 10:55 | 20.62145 | -44.25285 | 34173 ft | 520 kts | 231° |
| 2026-05-05 10:56 | 20.57359 | -44.31074 | 34166 ft | 520 kts | 231° |
| 2026-05-05 10:56 | 20.52561 | -44.36871 | 34167 ft | 520 kts | 231° |
| 2026-05-05 10:57 | 20.47763 | -44.42661 | 34162 ft | 520 kts | 230° |
| 2026-05-05 10:57 | 20.42967 | -44.48444 | 34168 ft | 521 kts | 230° |
| 2026-05-05 10:58 | 20.38166 | -44.54227 | 34167 ft | 521 kts | 230° |
| 2026-05-05 10:58 | 20.33387 | -44.59978 | 34168 ft | 521 kts | 230° |
| 2026-05-05 10:59 | 20.28579 | -44.65758 | 34168 ft | 522 kts | 230° |
| 2026-05-05 10:59 | 20.23753 | -44.71553 | 34165 ft | 522 kts | 230° |
| 2026-05-05 11:00 | 20.18959 | -44.77304 | 34166 ft | 522 kts | 230° |
| 2026-05-05 11:00 | 20.14120 | -44.83103 | 34166 ft | 523 kts | 230° |
| 2026-05-05 11:01 | 20.09280 | -44.88897 | 34165 ft | 523 kts | 230° |
| 2026-05-05 11:01 | 20.04468 | -44.94653 | 34165 ft | 523 kts | 230° |
| 2026-05-05 11:02 | 19.99619 | -45.00446 | 34162 ft | 523 kts | 230° |
| 2026-05-05 11:02 | 19.94486 | -45.05958 | 34163 ft | 524 kts | 224° |
| 2026-05-05 11:03 | 19.89144 | -45.11201 | 34162 ft | 526 kts | 224° |
| 2026-05-05 11:03 | 19.83782 | -45.16501 | 34160 ft | 525 kts | 225° |
| 2026-05-05 11:04 | 19.78499 | -45.21820 | 34159 ft | 525 kts | 225° |
| 2026-05-05 11:04 | 19.73205 | -45.27188 | 34159 ft | 526 kts | 225° |
| 2026-05-05 11:05 | 19.67911 | -45.32555 | 34157 ft | 526 kts | 225° |
| 2026-05-05 11:05 | 19.62612 | -45.37917 | 34157 ft | 526 kts | 225° |
| 2026-05-05 11:06 | 19.57340 | -45.43245 | 34157 ft | 527 kts | 225° |
| 2026-05-05 11:06 | 19.52032 | -45.48603 | 34157 ft | 527 kts | 225° |
| 2026-05-05 11:07 | 19.46712 | -45.53968 | 34159 ft | 527 kts | 225° |
| 2026-05-05 11:07 | 19.41398 | -45.59322 | 34158 ft | 527 kts | 225° |
| 2026-05-05 11:08 | 19.36080 | -45.64676 | 34159 ft | 527 kts | 224° |
| 2026-05-05 11:08 | 19.30799 | -45.69987 | 34159 ft | 527 kts | 224° |
| 2026-05-05 11:09 | 19.25473 | -45.75337 | 34156 ft | 527 kts | 224° |
| 2026-05-05 11:09 | 19.20143 | -45.80688 | 34157 ft | 528 kts | 224° |
| 2026-05-05 11:10 | 19.14817 | -45.86029 | 34157 ft | 528 kts | 224° |
| 2026-05-05 11:10 | 19.09484 | -45.91372 | 34154 ft | 528 kts | 224° |
| 2026-05-05 11:11 | 19.04153 | -45.96707 | 34155 ft | 528 kts | 224° |
| 2026-05-05 11:11 | 18.98849 | -46.02013 | 34154 ft | 528 kts | 224° |
| 2026-05-05 11:12 | 18.93502 | -46.07355 | 34154 ft | 528 kts | 224° |
| 2026-05-05 11:12 | 18.88154 | -46.12693 | 34154 ft | 528 kts | 224° |
| 2026-05-05 11:13 | 18.82834 | -46.17999 | 34152 ft | 529 kts | 224° |
| 2026-05-05 11:13 | 18.77485 | -46.23328 | 34155 ft | 529 kts | 224° |
| 2026-05-05 11:14 | 18.72126 | -46.28663 | 34152 ft | 529 kts | 224° |
| 2026-05-05 11:14 | 18.66765 | -46.33994 | 34151 ft | 529 kts | 224° |
| 2026-05-05 11:15 | 18.61407 | -46.39318 | 34150 ft | 529 kts | 224° |
| 2026-05-05 11:15 | 18.56041 | -46.44646 | 34150 ft | 529 kts | 224° |
| 2026-05-05 11:16 | 18.50678 | -46.49965 | 34151 ft | 529 kts | 224° |
| 2026-05-05 11:16 | 18.45351 | -46.55243 | 34177 ft | 529 kts | 224° |
| 2026-05-05 11:16 | 18.42673 | -46.57895 | 34431 ft | 526 kts | 224° |
| 2026-05-05 11:17 | 18.40013 | -46.60527 | 34820 ft | 522 kts | 224° |
| 2026-05-05 11:17 | 18.37373 | -46.63138 | 35164 ft | 519 kts | 224° |
| 2026-05-05 11:17 | 18.34743 | -46.65738 | 35417 ft | 518 kts | 224° |
| 2026-05-05 11:17 | 18.32118 | -46.68334 | 35656 ft | 517 kts | 224° |
| 2026-05-05 11:18 | 18.29493 | -46.70927 | 35897 ft | 517 kts | 224° |
| 2026-05-05 11:18 | 18.26873 | -46.73514 | 36094 ft | 516 kts | 224° |
| 2026-05-05 11:18 | 18.24249 | -46.76106 | 36151 ft | 520 kts | 224° |
| 2026-05-05 11:19 | 18.18947 | -46.81337 | 36151 ft | 522 kts | 224° |
| 2026-05-05 11:19 | 18.13678 | -46.86531 | 36151 ft | 521 kts | 224° |
| 2026-05-05 11:20 | 18.08384 | -46.91745 | 36151 ft | 521 kts | 224° |
| 2026-05-05 11:20 | 18.03089 | -46.96955 | 36149 ft | 521 kts | 224° |
| 2026-05-05 11:21 | 17.98687 | -47.01289 | 36148 ft | 521 kts | 224° |
| 2026-05-05 11:21 | 17.93477 | -47.06585 | 36145 ft | 521 kts | 225° |
| 2026-05-05 11:22 | 17.88302 | -47.11922 | 36151 ft | 521 kts | 225° |
| 2026-05-05 11:22 | 17.83121 | -47.17242 | 36144 ft | 521 kts | 225° |
| 2026-05-05 11:23 | 17.77928 | -47.22547 | 36147 ft | 521 kts | 225° |
| 2026-05-05 11:23 | 17.72720 | -47.27855 | 36145 ft | 521 kts | 225° |
| 2026-05-05 11:24 | 17.67512 | -47.33159 | 36147 ft | 521 kts | 225° |
| 2026-05-05 11:24 | 17.62339 | -47.38423 | 36148 ft | 522 kts | 225° |
| 2026-05-05 11:25 | 17.57124 | -47.43726 | 36148 ft | 522 kts | 225° |
| 2026-05-05 11:25 | 17.51913 | -47.49021 | 36146 ft | 522 kts | 225° |
| 2026-05-05 11:26 | 17.46695 | -47.54317 | 36145 ft | 522 kts | 225° |
| 2026-05-05 11:26 | 17.41478 | -47.59609 | 36145 ft | 522 kts | 225° |
| 2026-05-05 11:27 | 17.36258 | -47.64900 | 36147 ft | 522 kts | 225° |
| 2026-05-05 11:27 | 17.31061 | -47.70161 | 36144 ft | 522 kts | 225° |
| 2026-05-05 11:28 | 17.25829 | -47.75455 | 36140 ft | 522 kts | 225° |
| 2026-05-05 11:28 | 17.20599 | -47.80743 | 36140 ft | 523 kts | 225° |
| 2026-05-05 11:29 | 17.15364 | -47.86030 | 36141 ft | 523 kts | 225° |
| 2026-05-05 11:29 | 17.10154 | -47.91288 | 36149 ft | 523 kts | 225° |
| 2026-05-05 11:30 | 17.04916 | -47.96571 | 36147 ft | 523 kts | 224° |
| 2026-05-05 11:30 | 16.99676 | -48.01851 | 36141 ft | 523 kts | 224° |
| 2026-05-05 11:31 | 16.94428 | -48.07134 | 36144 ft | 523 kts | 224° |
| 2026-05-05 11:31 | 16.89184 | -48.12409 | 36141 ft | 523 kts | 224° |
| 2026-05-05 11:32 | 16.83931 | -48.17689 | 36140 ft | 523 kts | 224° |
| 2026-05-05 11:32 | 16.78718 | -48.22925 | 36143 ft | 523 kts | 224° |
| 2026-05-05 11:33 | 16.73468 | -48.28192 | 36139 ft | 523 kts | 224° |
| 2026-05-05 11:33 | 16.68206 | -48.33469 | 36137 ft | 523 kts | 224° |
| 2026-05-05 11:34 | 16.62956 | -48.38728 | 36134 ft | 523 kts | 224° |
| 2026-05-05 11:34 | 16.57704 | -48.43986 | 36134 ft | 523 kts | 224° |
| 2026-05-05 11:35 | 16.52455 | -48.49236 | 36136 ft | 523 kts | 224° |
| 2026-05-05 11:35 | 16.47238 | -48.54450 | 36135 ft | 523 kts | 224° |
| 2026-05-05 11:36 | 16.41989 | -48.59693 | 36138 ft | 523 kts | 224° |
| 2026-05-05 11:36 | 16.36732 | -48.64939 | 36138 ft | 523 kts | 224° |
| 2026-05-05 11:37 | 16.31477 | -48.70179 | 36137 ft | 523 kts | 224° |
| 2026-05-05 11:37 | 16.26226 | -48.75411 | 36138 ft | 523 kts | 224° |
| 2026-05-05 11:38 | 16.20959 | -48.80655 | 36135 ft | 523 kts | 224° |
| 2026-05-05 11:38 | 16.15704 | -48.85882 | 36135 ft | 522 kts | 224° |
| 2026-05-05 11:39 | 16.10484 | -48.91071 | 36131 ft | 522 kts | 224° |
| 2026-05-05 11:39 | 16.05226 | -48.96294 | 36133 ft | 522 kts | 224° |
| 2026-05-05 11:40 | 15.99974 | -49.01506 | 36136 ft | 522 kts | 224° |
| 2026-05-05 11:40 | 15.94719 | -49.06717 | 36132 ft | 521 kts | 224° |
| 2026-05-05 11:41 | 15.89512 | -49.11879 | 36131 ft | 521 kts | 224° |
| 2026-05-05 11:41 | 15.84259 | -49.17080 | 36130 ft | 521 kts | 224° |
| 2026-05-05 11:42 | 15.79008 | -49.22276 | 36135 ft | 521 kts | 224° |
| 2026-05-05 11:42 | 15.73763 | -49.27461 | 36131 ft | 519 kts | 224° |
| 2026-05-05 11:43 | 15.68533 | -49.32629 | 36130 ft | 519 kts | 224° |
| 2026-05-05 11:43 | 15.63321 | -49.37775 | 36129 ft | 520 kts | 224° |
| 2026-05-05 11:44 | 15.58085 | -49.42940 | 36128 ft | 520 kts | 224° |
| 2026-05-05 11:44 | 15.52847 | -49.48103 | 36129 ft | 518 kts | 224° |
| 2026-05-05 11:45 | 15.47626 | -49.53247 | 36124 ft | 517 kts | 224° |
| 2026-05-05 11:45 | 15.42432 | -49.58360 | 36127 ft | 518 kts | 224° |
| 2026-05-05 11:46 | 15.37203 | -49.63504 | 36129 ft | 518 kts | 224° |
| 2026-05-05 11:46 | 15.31980 | -49.68637 | 36127 ft | 517 kts | 224° |
| 2026-05-05 11:47 | 15.26762 | -49.73762 | 36128 ft | 516 kts | 224° |
| 2026-05-05 11:47 | 15.21546 | -49.78883 | 36129 ft | 517 kts | 224° |
| 2026-05-05 11:48 | 15.13704 | -49.86573 | 36127 ft | 517 kts | 224° |
| 2026-05-05 11:48 | 15.08482 | -49.91687 | 36126 ft | 517 kts | 224° |
| 2026-05-05 11:49 | 15.03262 | -49.96798 | 36124 ft | 516 kts | 224° |
| 2026-05-05 11:49 | 14.98060 | -50.01915 | 36124 ft | 516 kts | 225° |
| 2026-05-05 11:50 | 14.93043 | -50.07156 | 36123 ft | 516 kts | 226° |
| 2026-05-05 11:50 | 14.88035 | -50.12490 | 36122 ft | 516 kts | 226° |
| 2026-05-05 11:51 | 14.83026 | -50.17783 | 36125 ft | 514 kts | 226° |
| 2026-05-05 11:51 | 14.78012 | -50.23041 | 36122 ft | 514 kts | 226° |
| 2026-05-05 11:52 | 14.72986 | -50.28296 | 36120 ft | 514 kts | 226° |
| 2026-05-05 11:52 | 14.67958 | -50.33548 | 36119 ft | 514 kts | 226° |
| 2026-05-05 11:53 | 14.62939 | -50.38788 | 36122 ft | 511 kts | 226° |
| 2026-05-05 11:53 | 14.57968 | -50.43976 | 36122 ft | 510 kts | 226° |
| 2026-05-05 11:54 | 14.52969 | -50.49193 | 36114 ft | 511 kts | 226° |
| 2026-05-05 11:54 | 14.47965 | -50.54410 | 36117 ft | 511 kts | 226° |
| 2026-05-05 11:55 | 14.42958 | -50.59623 | 36115 ft | 511 kts | 227° |
| 2026-05-05 11:55 | 14.37972 | -50.64809 | 36115 ft | 506 kts | 227° |
| 2026-05-05 11:56 | 14.33043 | -50.69944 | 36119 ft | 507 kts | 226° |
| 2026-05-05 11:56 | 14.28066 | -50.75118 | 36118 ft | 508 kts | 226° |
| 2026-05-05 11:57 | 14.23084 | -50.80293 | 36118 ft | 508 kts | 226° |
| 2026-05-05 11:57 | 14.18101 | -50.85467 | 36119 ft | 508 kts | 226° |
| 2026-05-05 11:58 | 14.13115 | -50.90639 | 36115 ft | 509 kts | 226° |
| 2026-05-05 11:58 | 14.08119 | -50.95820 | 36114 ft | 510 kts | 226° |
| 2026-05-05 11:59 | 14.03118 | -51.01002 | 36115 ft | 510 kts | 226° |
| 2026-05-05 11:59 | 13.98113 | -51.06184 | 36116 ft | 510 kts | 226° |
| 2026-05-05 12:00 | 13.93124 | -51.11344 | 36117 ft | 507 kts | 226° |
| 2026-05-05 12:00 | 13.88183 | -51.16454 | 36118 ft | 505 kts | 226° |
| 2026-05-05 12:01 | 13.83224 | -51.21581 | 36115 ft | 505 kts | 226° |
| 2026-05-05 12:01 | 13.78255 | -51.26713 | 36117 ft | 505 kts | 226° |
| 2026-05-05 12:02 | 13.73294 | -51.31833 | 36113 ft | 505 kts | 227° |
| 2026-05-05 12:02 | 13.68334 | -51.36949 | 36112 ft | 504 kts | 227° |
| 2026-05-05 12:03 | 13.63409 | -51.42026 | 36114 ft | 505 kts | 227° |
| 2026-05-05 12:03 | 13.58453 | -51.47132 | 36116 ft | 505 kts | 226° |
| 2026-05-05 12:04 | 13.53487 | -51.52245 | 36111 ft | 505 kts | 227° |
| 2026-05-05 12:04 | 13.48529 | -51.57345 | 36106 ft | 504 kts | 227° |
| 2026-05-05 12:05 | 13.43574 | -51.62441 | 36110 ft | 504 kts | 227° |
| 2026-05-05 12:05 | 13.38612 | -51.67541 | 36124 ft | 504 kts | 227° |
| 2026-05-05 12:06 | 13.33680 | -51.72607 | 36124 ft | 504 kts | 227° |
| 2026-05-05 12:06 | 13.28722 | -51.77694 | 36122 ft | 504 kts | 227° |
| 2026-05-05 12:07 | 13.23760 | -51.82783 | 36113 ft | 503 kts | 226° |
| 2026-05-05 12:07 | 13.18806 | -51.87861 | 36113 ft | 503 kts | 227° |
| 2026-05-05 12:08 | 13.13850 | -51.92938 | 36098 ft | 503 kts | 227° |
| 2026-05-05 12:08 | 13.09722 | -51.97167 | 36110 ft | 504 kts | 226° |
| 2026-05-05 12:09 | 13.04767 | -52.02240 | 36110 ft | 504 kts | 227° |
| 2026-05-05 12:09 | 12.98992 | -52.08143 | 36107 ft | 503 kts | 227° |
| 2026-05-05 12:10 | 12.94842 | -52.12385 | 36109 ft | 503 kts | 227° |
| 2026-05-05 12:10 | 12.89888 | -52.17447 | 36106 ft | 503 kts | 227° |
| 2026-05-05 12:11 | 12.84931 | -52.22507 | 36104 ft | 503 kts | 227° |
| 2026-05-05 12:11 | 12.80001 | -52.27535 | 36105 ft | 503 kts | 227° |
| 2026-05-05 12:12 | 12.75036 | -52.32600 | 36102 ft | 502 kts | 227° |
| 2026-05-05 12:12 | 12.70078 | -52.37651 | 36106 ft | 501 kts | 227° |
| 2026-05-05 12:13 | 12.65138 | -52.42686 | 36104 ft | 501 kts | 227° |
| 2026-05-05 12:13 | 12.60222 | -52.47691 | 36100 ft | 501 kts | 226° |
| 2026-05-05 12:14 | 12.55272 | -52.52726 | 36103 ft | 501 kts | 227° |
| 2026-05-05 12:14 | 12.50315 | -52.57767 | 36098 ft | 501 kts | 227° |
| 2026-05-05 12:15 | 12.45368 | -52.62795 | 36099 ft | 500 kts | 226° |
| 2026-05-05 12:15 | 12.40455 | -52.67785 | 36100 ft | 500 kts | 226° |
| 2026-05-05 12:16 | 12.35521 | -52.72791 | 36098 ft | 500 kts | 226° |
| 2026-05-05 12:16 | 12.30576 | -52.77808 | 36090 ft | 500 kts | 226° |
| 2026-05-05 12:17 | 12.25630 | -52.82822 | 36095 ft | 499 kts | 227° |
| 2026-05-05 12:17 | 12.20704 | -52.87813 | 36094 ft | 497 kts | 227° |
| 2026-05-05 12:18 | 12.15788 | -52.92791 | 36093 ft | 497 kts | 226° |
| 2026-05-05 12:18 | 12.10901 | -52.97738 | 36092 ft | 497 kts | 227° |
| 2026-05-05 12:19 | 12.05988 | -53.02710 | 36092 ft | 498 kts | 226° |
| 2026-05-05 12:19 | 12.01061 | -53.07693 | 36087 ft | 498 kts | 227° |
| 2026-05-05 12:20 | 11.96148 | -53.12658 | 36095 ft | 495 kts | 226° |
| 2026-05-05 12:20 | 11.91252 | -53.17603 | 36091 ft | 495 kts | 226° |
| 2026-05-05 12:21 | 11.86382 | -53.22519 | 36094 ft | 495 kts | 227° |
| 2026-05-05 12:21 | 11.81481 | -53.27463 | 36091 ft | 495 kts | 226° |
| 2026-05-05 12:22 | 11.76576 | -53.32411 | 36089 ft | 496 kts | 226° |
| 2026-05-05 12:22 | 11.71656 | -53.37369 | 36091 ft | 496 kts | 226° |
| 2026-05-05 12:23 | 11.66734 | -53.42326 | 36096 ft | 496 kts | 226° |
| 2026-05-05 12:23 | 11.61821 | -53.47274 | 36087 ft | 496 kts | 226° |
| 2026-05-05 12:24 | 11.56930 | -53.52195 | 36088 ft | 496 kts | 226° |
| 2026-05-05 12:24 | 11.52013 | -53.57140 | 36085 ft | 496 kts | 226° |
| 2026-05-05 12:25 | 11.47104 | -53.62075 | 36093 ft | 495 kts | 227° |
| 2026-05-05 12:25 | 11.42197 | -53.67006 | 36092 ft | 495 kts | 226° |
| 2026-05-05 12:26 | 11.37297 | -53.71927 | 36089 ft | 495 kts | 226° |
| 2026-05-05 12:26 | 11.32390 | -53.76852 | 36089 ft | 495 kts | 226° |
| 2026-05-05 12:27 | 11.27509 | -53.81751 | 36086 ft | 496 kts | 226° |
| 2026-05-05 12:27 | 11.22600 | -53.86672 | 36085 ft | 493 kts | 226° |
| 2026-05-05 12:28 | 11.17718 | -53.91562 | 36086 ft | 492 kts | 226° |
| 2026-05-05 12:28 | 11.12831 | -53.96457 | 36086 ft | 492 kts | 226° |
| 2026-05-05 12:29 | 11.07949 | -54.01344 | 36079 ft | 492 kts | 226° |
| 2026-05-05 12:29 | 11.03062 | -54.06239 | 36082 ft | 492 kts | 226° |
| 2026-05-05 12:30 | 10.98199 | -54.11102 | 36081 ft | 492 kts | 226° |
| 2026-05-05 12:30 | 10.93327 | -54.15971 | 36084 ft | 489 kts | 226° |
| 2026-05-05 12:31 | 10.88476 | -54.20817 | 36080 ft | 489 kts | 226° |
| 2026-05-05 12:31 | 10.83628 | -54.25659 | 36082 ft | 489 kts | 226° |
| 2026-05-05 12:32 | 10.78772 | -54.30508 | 36079 ft | 489 kts | 226° |
| 2026-05-05 12:32 | 10.73911 | -54.35358 | 36077 ft | 489 kts | 226° |
| 2026-05-05 12:33 | 10.69052 | -54.40203 | 36078 ft | 487 kts | 226° |
| 2026-05-05 12:33 | 10.64243 | -54.44995 | 36078 ft | 487 kts | 226° |
| 2026-05-05 12:34 | 10.59405 | -54.49816 | 36079 ft | 487 kts | 226° |
| 2026-05-05 12:34 | 10.54558 | -54.54644 | 36077 ft | 487 kts | 226° |
| 2026-05-05 12:35 | 10.49705 | -54.59473 | 36078 ft | 488 kts | 226° |
| 2026-05-05 12:35 | 10.44861 | -54.64294 | 36076 ft | 487 kts | 226° |
| 2026-05-05 12:36 | 10.40057 | -54.69072 | 36078 ft | 485 kts | 226° |
| 2026-05-05 12:36 | 10.35224 | -54.73877 | 36073 ft | 485 kts | 226° |
| 2026-05-05 12:37 | 10.30399 | -54.78671 | 36075 ft | 485 kts | 226° |
| 2026-05-05 12:37 | 10.25568 | -54.83469 | 36069 ft | 486 kts | 226° |
| 2026-05-05 12:38 | 10.20736 | -54.88265 | 36070 ft | 486 kts | 226° |
| 2026-05-05 12:38 | 10.15904 | -54.93060 | 36069 ft | 484 kts | 226° |
| 2026-05-05 12:39 | 10.11097 | -54.97827 | 36070 ft | 483 kts | 226° |
| 2026-05-05 12:39 | 10.06325 | -55.02558 | 36070 ft | 483 kts | 226° |
| 2026-05-05 12:40 | 10.01509 | -55.07331 | 36067 ft | 484 kts | 226° |
| 2026-05-05 12:40 | 9.96692 | -55.12102 | 36067 ft | 484 kts | 226° |
| 2026-05-05 12:41 | 9.91876 | -55.16870 | 36064 ft | 483 kts | 226° |
| 2026-05-05 12:41 | 9.87069 | -55.21627 | 36067 ft | 482 kts | 226° |
| 2026-05-05 12:42 | 9.82273 | -55.26372 | 36070 ft | 481 kts | 226° |
| 2026-05-05 12:42 | 9.77472 | -55.31120 | 36065 ft | 482 kts | 226° |
| 2026-05-05 12:43 | 9.72697 | -55.35839 | 36067 ft | 482 kts | 226° |
| 2026-05-05 12:43 | 9.67889 | -55.40590 | 36065 ft | 482 kts | 226° |
| 2026-05-05 12:44 | 9.63074 | -55.45343 | 36061 ft | 482 kts | 226° |
| 2026-05-05 12:44 | 9.58281 | -55.50075 | 36064 ft | 481 kts | 226° |
| 2026-05-05 12:45 | 9.53514 | -55.54779 | 36065 ft | 481 kts | 226° |
| 2026-05-05 12:45 | 9.48697 | -55.59531 | 36064 ft | 481 kts | 226° |
| 2026-05-05 12:46 | 9.43890 | -55.64270 | 36064 ft | 481 kts | 226° |
| 2026-05-05 12:46 | 9.39092 | -55.68999 | 36065 ft | 481 kts | 226° |
| 2026-05-05 12:47 | 9.34322 | -55.73697 | 36064 ft | 481 kts | 226° |
| 2026-05-05 12:47 | 9.29531 | -55.78415 | 36064 ft | 481 kts | 226° |
| 2026-05-05 12:48 | 9.24729 | -55.83142 | 36062 ft | 481 kts | 226° |
| 2026-05-05 12:48 | 9.19924 | -55.87869 | 36061 ft | 482 kts | 226° |
| 2026-05-05 12:49 | 9.15115 | -55.92600 | 36063 ft | 482 kts | 226° |
| 2026-05-05 12:49 | 9.10303 | -55.97330 | 36064 ft | 482 kts | 226° |
| 2026-05-05 12:50 | 9.05473 | -56.01970 | 36064 ft | 482 kts | 224° |
| 2026-05-05 12:50 | 9.00384 | -56.06413 | 36058 ft | 483 kts | 222° |
| 2026-05-05 12:51 | 8.95267 | -56.10816 | 36058 ft | 483 kts | 223° |
| 2026-05-05 12:51 | 8.90177 | -56.15254 | 36059 ft | 483 kts | 223° |
| 2026-05-05 12:52 | 8.85105 | -56.19714 | 36058 ft | 482 kts | 223° |
| 2026-05-05 12:52 | 8.80076 | -56.24145 | 36057 ft | 482 kts | 223° |
| 2026-05-05 12:53 | 8.75032 | -56.28587 | 36062 ft | 480 kts | 223° |
| 2026-05-05 12:53 | 8.69989 | -56.33023 | 36062 ft | 481 kts | 223° |
| 2026-05-05 12:54 | 8.62404 | -56.39693 | 36060 ft | 482 kts | 223° |
| 2026-05-05 12:55 | 8.57380 | -56.44108 | 36055 ft | 482 kts | 223° |
| 2026-05-05 12:55 | 8.52326 | -56.48548 | 36053 ft | 481 kts | 223° |
| 2026-05-05 12:56 | 8.47286 | -56.52974 | 36055 ft | 478 kts | 223° |
| 2026-05-05 12:56 | 8.42268 | -56.57379 | 36059 ft | 478 kts | 223° |
| 2026-05-05 12:57 | 8.37238 | -56.61793 | 36057 ft | 479 kts | 223° |
| 2026-05-05 12:57 | 8.32199 | -56.66214 | 36054 ft | 480 kts | 223° |
| 2026-05-05 12:58 | 8.27156 | -56.70637 | 36057 ft | 480 kts | 223° |
| 2026-05-05 12:58 | 8.22965 | -56.74311 | 36050 ft | 479 kts | 222° |
| 2026-05-05 12:59 | 8.17112 | -56.79442 | 36055 ft | 478 kts | 222° |
| 2026-05-05 12:59 | 8.12934 | -56.83101 | 36055 ft | 478 kts | 222° |
| 2026-05-05 13:00 | 8.05393 | -56.89704 | 36059 ft | 478 kts | 222° |
| 2026-05-05 13:01 | 7.95339 | -56.98504 | 36047 ft | 478 kts | 222° |
| 2026-05-05 13:01 | 7.90298 | -57.02919 | 36053 ft | 481 kts | 222° |
| 2026-05-05 13:02 | 7.85267 | -57.07317 | 36052 ft | 482 kts | 222° |
| 2026-05-05 13:02 | 7.80194 | -57.11750 | 36053 ft | 482 kts | 222° |
| 2026-05-05 13:03 | 7.75134 | -57.16170 | 36054 ft | 481 kts | 222° |
| 2026-05-05 13:03 | 7.70061 | -57.20602 | 36054 ft | 481 kts | 222° |
| 2026-05-05 13:04 | 7.65001 | -57.25021 | 36055 ft | 481 kts | 222° |
| 2026-05-05 13:04 | 7.59951 | -57.29431 | 36056 ft | 484 kts | 222° |
| 2026-05-05 13:05 | 7.54861 | -57.33873 | 36054 ft | 484 kts | 222° |
| 2026-05-05 13:05 | 7.49765 | -57.38319 | 36054 ft | 484 kts | 222° |
| 2026-05-05 13:06 | 7.44675 | -57.42759 | 36052 ft | 484 kts | 222° |
| 2026-05-05 13:06 | 7.39575 | -57.47207 | 36046 ft | 485 kts | 222° |
| 2026-05-05 13:07 | 7.34479 | -57.51651 | 36051 ft | 485 kts | 222° |
| 2026-05-05 13:07 | 7.29377 | -57.56127 | 36051 ft | 486 kts | 222° |
| 2026-05-05 13:08 | 7.24278 | -57.60607 | 36049 ft | 486 kts | 222° |
| 2026-05-05 13:08 | 7.19215 | -57.65053 | 36049 ft | 486 kts | 222° |
| 2026-05-05 13:09 | 7.14113 | -57.69529 | 36052 ft | 486 kts | 222° |
| 2026-05-05 13:09 | 7.09008 | -57.74007 | 36050 ft | 486 kts | 222° |
| 2026-05-05 13:10 | 7.03908 | -57.78482 | 36047 ft | 487 kts | 222° |
| 2026-05-05 13:10 | 6.98821 | -57.82942 | 36049 ft | 488 kts | 222° |
| 2026-05-05 13:11 | 6.93694 | -57.87435 | 36041 ft | 487 kts | 222° |
| 2026-05-05 13:11 | 6.88575 | -57.91919 | 36044 ft | 488 kts | 222° |
| 2026-05-05 13:12 | 6.83448 | -57.96408 | 36047 ft | 488 kts | 222° |
| 2026-05-05 13:12 | 6.78321 | -58.00896 | 36046 ft | 488 kts | 222° |
| 2026-05-05 13:13 | 6.73190 | -58.05387 | 36044 ft | 490 kts | 222° |
| 2026-05-05 13:13 | 6.68062 | -58.09874 | 36060 ft | 491 kts | 222° |
| 2026-05-05 13:14 | 6.62896 | -58.14393 | 36045 ft | 491 kts | 222° |
| 2026-05-05 13:14 | 6.57727 | -58.18912 | 36047 ft | 491 kts | 222° |
| 2026-05-05 13:15 | 6.52477 | -58.23318 | 36045 ft | 492 kts | 216° |
| 2026-05-05 13:15 | 6.46368 | -58.26419 | 36049 ft | 495 kts | 199° |
| 2026-05-05 13:16 | 6.39645 | -58.27986 | 36049 ft | 497 kts | 192° |
| 2026-05-05 13:16 | 6.32833 | -58.29211 | 36050 ft | 497 kts | 191° |
| 2026-05-05 13:17 | 6.26062 | -58.30400 | 36037 ft | 497 kts | 191° |
| 2026-05-05 13:17 | 6.19251 | -58.31638 | 36039 ft | 497 kts | 191° |
| 2026-05-05 13:18 | 6.12448 | -58.32899 | 36041 ft | 497 kts | 192° |
| 2026-05-05 13:18 | 6.05634 | -58.34168 | 36043 ft | 497 kts | 191° |
| 2026-05-05 13:19 | 5.98837 | -58.35433 | 36039 ft | 497 kts | 191° |
| 2026-05-05 13:19 | 5.92038 | -58.36696 | 36047 ft | 497 kts | 192° |
| 2026-05-05 13:20 | 5.85267 | -58.37954 | 36049 ft | 497 kts | 192° |
| 2026-05-05 13:20 | 5.78476 | -58.39214 | 36040 ft | 496 kts | 191° |
| 2026-05-05 13:21 | 5.71677 | -58.40475 | 36043 ft | 496 kts | 192° |
| 2026-05-05 13:21 | 5.64879 | -58.41738 | 36049 ft | 496 kts | 191° |
| 2026-05-05 13:22 | 5.58134 | -58.43000 | 36043 ft | 496 kts | 191° |
| 2026-05-05 13:22 | 5.51340 | -58.44289 | 36040 ft | 496 kts | 192° |
| 2026-05-05 13:23 | 5.44542 | -58.45581 | 36052 ft | 497 kts | 192° |
| 2026-05-05 13:23 | 5.37735 | -58.46874 | 36048 ft | 497 kts | 192° |
| 2026-05-05 13:24 | 5.30972 | -58.48156 | 36043 ft | 497 kts | 192° |
| 2026-05-05 13:24 | 5.24168 | -58.49445 | 36045 ft | 497 kts | 192° |
| 2026-05-05 13:25 | 5.17370 | -58.50733 | 36053 ft | 497 kts | 191° |
| 2026-05-05 13:25 | 5.10566 | -58.52022 | 36053 ft | 497 kts | 191° |
| 2026-05-05 13:26 | 5.03762 | -58.53311 | 36054 ft | 497 kts | 191° |
| 2026-05-05 13:26 | 4.96959 | -58.54599 | 36054 ft | 497 kts | 192° |
| 2026-05-05 13:27 | 4.90152 | -58.55888 | 36042 ft | 498 kts | 191° |
| 2026-05-05 13:27 | 4.83354 | -58.57174 | 36051 ft | 496 kts | 191° |
| 2026-05-05 13:28 | 4.76605 | -58.58450 | 36047 ft | 496 kts | 191° |
| 2026-05-05 13:28 | 4.69813 | -58.59735 | 36054 ft | 496 kts | 191° |
| 2026-05-05 13:29 | 4.63020 | -58.61020 | 36051 ft | 496 kts | 191° |
| 2026-05-05 13:29 | 4.56229 | -58.62303 | 36048 ft | 496 kts | 191° |
| 2026-05-05 13:30 | 4.49482 | -58.63579 | 36048 ft | 496 kts | 191° |
| 2026-05-05 13:30 | 4.42701 | -58.64861 | 36048 ft | 496 kts | 191° |
| 2026-05-05 13:31 | 4.35913 | -58.66144 | 36048 ft | 496 kts | 191° |
| 2026-05-05 13:31 | 4.29121 | -58.67427 | 36044 ft | 496 kts | 191° |
| 2026-05-05 13:32 | 4.22330 | -58.68710 | 36045 ft | 496 kts | 191° |
| 2026-05-05 13:32 | 4.15587 | -58.69985 | 36045 ft | 496 kts | 191° |
| 2026-05-05 13:33 | 4.08790 | -58.71268 | 36046 ft | 496 kts | 191° |
| 2026-05-05 13:33 | 4.02004 | -58.72549 | 36041 ft | 496 kts | 191° |
| 2026-05-05 13:34 | 3.95215 | -58.73831 | 36043 ft | 496 kts | 191° |
| 2026-05-05 13:34 | 3.88429 | -58.75112 | 36042 ft | 496 kts | 191° |
| 2026-05-05 13:35 | 3.81652 | -58.76399 | 36043 ft | 496 kts | 191° |
| 2026-05-05 13:35 | 3.74875 | -58.77682 | 36042 ft | 495 kts | 191° |
| 2026-05-05 13:36 | 3.68100 | -58.78965 | 36047 ft | 495 kts | 191° |
| 2026-05-05 13:36 | 3.61363 | -58.80241 | 36045 ft | 495 kts | 191° |
| 2026-05-05 13:37 | 3.54587 | -58.81527 | 36048 ft | 496 kts | 191° |
| 2026-05-05 13:37 | 3.47807 | -58.82812 | 36051 ft | 496 kts | 191° |
| 2026-05-05 13:38 | 3.41023 | -58.84096 | 36051 ft | 496 kts | 191° |
| 2026-05-05 13:38 | 3.34239 | -58.85381 | 36051 ft | 496 kts | 191° |
| 2026-05-05 13:39 | 3.27462 | -58.86664 | 36051 ft | 496 kts | 191° |
| 2026-05-05 13:39 | 3.20677 | -58.87951 | 36050 ft | 496 kts | 190° |
| 2026-05-05 13:40 | 3.13914 | -58.89230 | 36050 ft | 497 kts | 190° |
| 2026-05-05 13:40 | 3.07122 | -58.90516 | 36050 ft | 496 kts | 190° |
| 2026-05-05 13:41 | 3.00333 | -58.91801 | 36048 ft | 496 kts | 190° |
| 2026-05-05 13:41 | 2.93539 | -58.93087 | 36047 ft | 496 kts | 190° |
| 2026-05-05 13:42 | 2.86744 | -58.94373 | 36044 ft | 496 kts | 190° |
| 2026-05-05 13:42 | 2.79991 | -58.95651 | 36046 ft | 496 kts | 190° |
| 2026-05-05 13:43 | 2.73195 | -58.96937 | 36045 ft | 496 kts | 190° |
| 2026-05-05 13:43 | 2.66411 | -58.98221 | 36045 ft | 496 kts | 190° |
| 2026-05-05 13:44 | 2.59624 | -58.99506 | 36046 ft | 496 kts | 190° |
| 2026-05-05 13:44 | 2.52877 | -59.00782 | 36048 ft | 495 kts | 190° |
| 2026-05-05 13:45 | 2.46094 | -59.02064 | 36051 ft | 495 kts | 190° |
| 2026-05-05 13:45 | 2.39329 | -59.03343 | 36053 ft | 495 kts | 190° |
| 2026-05-05 13:46 | 2.32548 | -59.04625 | 36053 ft | 496 kts | 189° |
| 2026-05-05 13:46 | 2.25765 | -59.05908 | 36053 ft | 496 kts | 189° |
| 2026-05-05 13:47 | 2.20132 | -59.06973 | 36056 ft | 495 kts | 189° |
| 2026-05-05 13:47 | 2.12242 | -59.08464 | 36056 ft | 495 kts | 189° |
| 2026-05-05 13:48 | 2.06605 | -59.09529 | 36059 ft | 496 kts | 190° |
| 2026-05-05 13:48 | 1.99814 | -59.10812 | 36059 ft | 495 kts | 189° |
| 2026-05-05 13:49 | 1.93026 | -59.12094 | 36061 ft | 496 kts | 190° |
| 2026-05-05 13:49 | 1.86272 | -59.13371 | 36061 ft | 497 kts | 190° |
| 2026-05-05 13:50 | 1.79481 | -59.14655 | 36063 ft | 497 kts | 190° |
| 2026-05-05 13:50 | 1.72691 | -59.15938 | 36064 ft | 497 kts | 190° |
| 2026-05-05 13:51 | 1.65903 | -59.17220 | 36065 ft | 497 kts | 190° |
| 2026-05-05 13:51 | 1.59111 | -59.18504 | 36064 ft | 496 kts | 189° |
| 2026-05-05 13:52 | 1.52329 | -59.19785 | 36059 ft | 496 kts | 189° |
| 2026-05-05 13:52 | 1.45583 | -59.21058 | 36059 ft | 496 kts | 189° |
| 2026-05-05 13:53 | 1.38807 | -59.22337 | 36059 ft | 495 kts | 189° |
| 2026-05-05 13:53 | 1.32028 | -59.23648 | 36058 ft | 496 kts | 190° |
| 2026-05-05 13:54 | 1.25274 | -59.25024 | 36056 ft | 495 kts | 190° |
| 2026-05-05 13:54 | 1.18520 | -59.26405 | 36054 ft | 495 kts | 190° |
| 2026-05-05 13:55 | 1.11771 | -59.27774 | 36051 ft | 495 kts | 190° |
| 2026-05-05 13:55 | 1.05017 | -59.29138 | 36048 ft | 495 kts | 190° |
| 2026-05-05 13:56 | 0.98312 | -59.30491 | 36048 ft | 495 kts | 190° |
| 2026-05-05 13:56 | 0.91557 | -59.31855 | 36048 ft | 495 kts | 190° |
| 2026-05-05 13:57 | 0.84786 | -59.33221 | 36047 ft | 496 kts | 190° |
| 2026-05-05 13:57 | 0.78014 | -59.34587 | 36048 ft | 496 kts | 190° |
| 2026-05-05 13:58 | 0.71257 | -59.35958 | 36048 ft | 496 kts | 190° |
| 2026-05-05 13:58 | 0.64538 | -59.37326 | 36049 ft | 496 kts | 190° |
| 2026-05-05 13:59 | 0.54388 | -59.39393 | 36048 ft | 495 kts | 190° |
| 2026-05-05 14:00 | 0.44274 | -59.41436 | 36050 ft | 495 kts | 190° |
| 2026-05-05 14:00 | 0.37514 | -59.42801 | 36050 ft | 495 kts | 190° |
| 2026-05-05 14:01 | 0.30753 | -59.44174 | 36047 ft | 495 kts | 190° |
| 2026-05-05 14:01 | 0.23995 | -59.45553 | 36333 ft | 493 kts | 190° |
| 2026-05-05 14:02 | 0.20643 | -59.46235 | 36669 ft | 491 kts | 190° |
| 2026-05-05 14:02 | 0.17303 | -59.46915 | 36939 ft | 489 kts | 191° |
| 2026-05-05 14:02 | 0.13958 | -59.47595 | 37185 ft | 489 kts | 191° |
| 2026-05-05 14:02 | 0.10630 | -59.48272 | 37387 ft | 489 kts | 191° |
| 2026-05-05 14:03 | 0.07293 | -59.48952 | 37614 ft | 489 kts | 191° |
| 2026-05-05 14:03 | 0.03965 | -59.49630 | 37812 ft | 488 kts | 191° |
| 2026-05-05 14:03 | 0.00635 | -59.50308 | 38002 ft | 489 kts | 191° |
| 2026-05-05 14:03 | -0.02709 | -59.50991 | 38046 ft | 492 kts | 190° |
| 2026-05-05 14:04 | -0.09380 | -59.52352 | 38048 ft | 492 kts | 190° |
| 2026-05-05 14:04 | -0.16097 | -59.53719 | 38048 ft | 492 kts | 190° |
| 2026-05-05 14:05 | -0.22810 | -59.55086 | 38048 ft | 492 kts | 190° |
| 2026-05-05 14:05 | -0.29523 | -59.56453 | 38047 ft | 492 kts | 190° |
| 2026-05-05 14:06 | -0.36233 | -59.57820 | 38048 ft | 492 kts | 190° |
| 2026-05-05 14:06 | -0.42911 | -59.59181 | 38048 ft | 492 kts | 190° |
| 2026-05-05 14:07 | -0.49629 | -59.60550 | 38045 ft | 492 kts | 191° |
| 2026-05-05 14:07 | -0.56347 | -59.61919 | 38048 ft | 493 kts | 191° |
| 2026-05-05 14:08 | -0.63078 | -59.63291 | 38047 ft | 493 kts | 191° |
| 2026-05-05 14:08 | -0.69786 | -59.64658 | 38047 ft | 493 kts | 191° |
| 2026-05-05 14:09 | -0.76531 | -59.66033 | 38047 ft | 494 kts | 191° |
| 2026-05-05 14:09 | -0.83225 | -59.67395 | 38050 ft | 494 kts | 191° |
| 2026-05-05 14:10 | -0.89969 | -59.68770 | 38046 ft | 494 kts | 191° |
| 2026-05-05 14:10 | -0.96712 | -59.70145 | 38044 ft | 494 kts | 190° |
| 2026-05-05 14:11 | -1.03428 | -59.71515 | 38045 ft | 494 kts | 190° |
| 2026-05-05 14:11 | -1.10179 | -59.72890 | 38045 ft | 495 kts | 190° |
| 2026-05-05 14:12 | -1.16940 | -59.74268 | 38043 ft | 495 kts | 190° |
| 2026-05-05 14:12 | -1.23684 | -59.75643 | 38042 ft | 495 kts | 190° |
| 2026-05-05 14:13 | -1.30387 | -59.77009 | 38042 ft | 495 kts | 190° |
| 2026-05-05 14:13 | -1.37129 | -59.78386 | 38039 ft | 494 kts | 189° |
| 2026-05-05 14:14 | -1.43899 | -59.79766 | 38042 ft | 494 kts | 189° |
| 2026-05-05 14:14 | -1.50611 | -59.81134 | 38042 ft | 494 kts | 189° |
| 2026-05-05 14:15 | -1.57364 | -59.82511 | 38042 ft | 494 kts | 190° |
| 2026-05-05 14:15 | -1.64113 | -59.83893 | 38039 ft | 494 kts | 189° |
| 2026-05-05 14:16 | -1.70868 | -59.85270 | 38039 ft | 496 kts | 189° |
| 2026-05-05 14:16 | -1.77598 | -59.86640 | 38039 ft | 496 kts | 189° |
| 2026-05-05 14:17 | -1.84395 | -59.88025 | 38039 ft | 497 kts | 189° |
| 2026-05-05 14:17 | -1.91178 | -59.89410 | 38043 ft | 497 kts | 189° |
| 2026-05-05 14:18 | -1.97912 | -59.90784 | 38043 ft | 497 kts | 189° |
| 2026-05-05 14:18 | -2.04711 | -59.92172 | 38040 ft | 499 kts | 189° |
| 2026-05-05 14:19 | -2.11527 | -59.93563 | 38043 ft | 499 kts | 189° |
| 2026-05-05 14:19 | -2.18311 | -59.94948 | 38042 ft | 499 kts | 189° |
| 2026-05-05 14:20 | -2.25133 | -59.96341 | 38042 ft | 500 kts | 189° |
| 2026-05-05 14:20 | -2.31961 | -59.97743 | 38042 ft | 500 kts | 189° |
| 2026-05-05 14:21 | -2.38770 | -59.99019 | 38042 ft | 499 kts | 185° |
| 2026-05-05 14:21 | -2.45667 | -59.99795 | 38039 ft | 498 kts | 184° |
| 2026-05-05 14:22 | -2.52537 | -60.00463 | 38039 ft | 498 kts | 183° |
| 2026-05-05 14:22 | -2.59449 | -60.01072 | 38040 ft | 498 kts | 180° |
| 2026-05-05 14:23 | -2.66365 | -60.01606 | 38039 ft | 498 kts | 181° |
| 2026-05-05 14:23 | -2.73282 | -60.02218 | 38040 ft | 498 kts | 181° |
| 2026-05-05 14:24 | -2.80147 | -60.02880 | 38038 ft | 499 kts | 182° |
| 2026-05-05 14:24 | -2.87060 | -60.03562 | 38046 ft | 499 kts | 182° |
| 2026-05-05 14:25 | -2.93973 | -60.04251 | 38046 ft | 499 kts | 183° |
| 2026-05-05 14:25 | -3.00737 | -60.05924 | 38046 ft | 504 kts | 200° |
| 2026-05-05 14:26 | -3.06701 | -60.09627 | 38046 ft | 509 kts | 219° |
| 2026-05-05 14:26 | -3.11304 | -60.14956 | 38047 ft | 510 kts | 230° |
| 2026-05-05 14:27 | -3.15498 | -60.20705 | 38044 ft | 510 kts | 232° |
| 2026-05-05 14:27 | -3.19622 | -60.26469 | 38041 ft | 509 kts | 231° |
| 2026-05-05 14:28 | -3.23795 | -60.32184 | 38040 ft | 508 kts | 229° |
| 2026-05-05 14:28 | -3.28255 | -60.37666 | 38036 ft | 508 kts | 227° |
| 2026-05-05 14:29 | -3.32775 | -60.43057 | 38038 ft | 508 kts | 227° |
| 2026-05-05 14:29 | -3.37285 | -60.48509 | 38037 ft | 508 kts | 228° |
| 2026-05-05 14:30 | -3.41758 | -60.53979 | 38042 ft | 508 kts | 228° |
| 2026-05-05 14:30 | -3.46225 | -60.59458 | 38042 ft | 508 kts | 228° |
| 2026-05-05 14:31 | -3.50712 | -60.64922 | 38041 ft | 507 kts | 226° |
| 2026-05-05 14:31 | -3.55413 | -60.70182 | 38039 ft | 506 kts | 225° |
| 2026-05-05 14:32 | -3.60182 | -60.75382 | 38039 ft | 507 kts | 225° |
| 2026-05-05 14:32 | -3.64896 | -60.80582 | 38040 ft | 507 kts | 225° |
| 2026-05-05 14:33 | -3.69620 | -60.85841 | 38039 ft | 507 kts | 225° |
| 2026-05-05 14:33 | -3.74327 | -60.91099 | 38042 ft | 507 kts | 225° |
| 2026-05-05 14:34 | -3.79006 | -60.96328 | 38039 ft | 507 kts | 225° |
| 2026-05-05 14:34 | -3.83715 | -61.01588 | 38039 ft | 507 kts | 225° |
| 2026-05-05 14:35 | -3.88424 | -61.06863 | 38039 ft | 506 kts | 226° |
| 2026-05-05 14:35 | -3.93093 | -61.12146 | 38040 ft | 506 kts | 226° |
| 2026-05-05 14:36 | -3.96984 | -61.16526 | 38039 ft | 505 kts | 226° |
| 2026-05-05 14:36 | -4.02438 | -61.22631 | 38037 ft | 505 kts | 226° |
| 2026-05-05 14:37 | -4.06338 | -61.26987 | 38037 ft | 503 kts | 226° |
| 2026-05-05 14:37 | -4.11007 | -61.32205 | 38037 ft | 503 kts | 226° |
| 2026-05-05 14:38 | -4.15674 | -61.37421 | 38036 ft | 501 kts | 226° |
| 2026-05-05 14:38 | -4.20325 | -61.42619 | 38037 ft | 500 kts | 226° |
| 2026-05-05 14:39 | -4.24976 | -61.47820 | 38037 ft | 500 kts | 226° |
| 2026-05-05 14:39 | -4.29618 | -61.53012 | 38039 ft | 500 kts | 226° |
| 2026-05-05 14:40 | -4.34230 | -61.58177 | 38037 ft | 500 kts | 227° |
| 2026-05-05 14:40 | -4.38875 | -61.63400 | 38037 ft | 500 kts | 227° |
| 2026-05-05 14:41 | -4.43511 | -61.68616 | 38040 ft | 500 kts | 227° |
| 2026-05-05 14:41 | -4.48113 | -61.73793 | 38039 ft | 500 kts | 227° |
| 2026-05-05 14:42 | -4.52739 | -61.78998 | 38037 ft | 500 kts | 227° |
| 2026-05-05 14:42 | -4.57368 | -61.84208 | 38034 ft | 500 kts | 227° |
| 2026-05-05 14:43 | -4.62001 | -61.89423 | 38034 ft | 500 kts | 227° |
| 2026-05-05 14:43 | -4.66628 | -61.94632 | 38036 ft | 500 kts | 227° |
| 2026-05-05 14:44 | -4.71222 | -61.99806 | 38037 ft | 499 kts | 227° |
| 2026-05-05 14:44 | -4.75840 | -62.05007 | 38037 ft | 499 kts | 227° |
| 2026-05-05 14:45 | -4.80461 | -62.10214 | 38037 ft | 499 kts | 227° |
| 2026-05-05 14:45 | -4.85082 | -62.15421 | 38037 ft | 499 kts | 227° |
| 2026-05-05 14:46 | -4.89673 | -62.20596 | 38037 ft | 499 kts | 227° |
| 2026-05-05 14:46 | -4.94296 | -62.25807 | 38038 ft | 500 kts | 227° |
| 2026-05-05 14:47 | -4.98925 | -62.31027 | 38037 ft | 500 kts | 227° |
| 2026-05-05 14:47 | -5.03530 | -62.36221 | 38037 ft | 500 kts | 227° |
| 2026-05-05 14:48 | -5.08168 | -62.41454 | 38043 ft | 500 kts | 227° |
| 2026-05-05 14:48 | -5.12800 | -62.46682 | 38042 ft | 500 kts | 227° |
| 2026-05-05 14:49 | -5.17384 | -62.51902 | 38043 ft | 500 kts | 227° |
| 2026-05-05 14:49 | -5.21969 | -62.57144 | 38042 ft | 499 kts | 227° |
| 2026-05-05 14:50 | -5.26528 | -62.62354 | 38039 ft | 499 kts | 227° |
| 2026-05-05 14:50 | -5.31119 | -62.67597 | 38043 ft | 499 kts | 227° |
| 2026-05-05 14:51 | -5.35712 | -62.72843 | 38043 ft | 499 kts | 227° |
| 2026-05-05 14:51 | -5.40299 | -62.78082 | 38042 ft | 499 kts | 227° |
| 2026-05-05 14:52 | -5.44867 | -62.83301 | 38046 ft | 499 kts | 227° |
| 2026-05-05 14:52 | -5.49455 | -62.88545 | 38042 ft | 498 kts | 227° |
| 2026-05-05 14:53 | -5.53999 | -62.93740 | 38042 ft | 498 kts | 227° |
| 2026-05-05 14:53 | -5.58575 | -62.98973 | 38043 ft | 498 kts | 227° |
| 2026-05-05 14:54 | -5.63151 | -63.04206 | 38045 ft | 498 kts | 227° |
| 2026-05-05 14:54 | -5.67693 | -63.09403 | 38045 ft | 498 kts | 227° |
| 2026-05-05 14:55 | -5.72261 | -63.14630 | 38040 ft | 498 kts | 227° |
| 2026-05-05 14:55 | -5.76864 | -63.19844 | 38040 ft | 498 kts | 226° |
| 2026-05-05 14:56 | -5.81563 | -63.24994 | 38039 ft | 498 kts | 226° |
| 2026-05-05 14:56 | -5.86233 | -63.30100 | 38036 ft | 498 kts | 226° |
| 2026-05-05 14:57 | -5.90917 | -63.35249 | 38037 ft | 499 kts | 226° |
| 2026-05-05 14:57 | -5.95592 | -63.40405 | 38037 ft | 499 kts | 226° |
| 2026-05-05 14:58 | -6.00239 | -63.45535 | 38040 ft | 498 kts | 226° |
| 2026-05-05 14:58 | -6.04914 | -63.50696 | 38040 ft | 498 kts | 226° |
| 2026-05-05 14:59 | -6.09575 | -63.55857 | 38040 ft | 498 kts | 227° |
| 2026-05-05 14:59 | -6.14147 | -63.61027 | 38039 ft | 498 kts | 227° |
| 2026-05-05 15:00 | -6.17969 | -63.65371 | 38045 ft | 498 kts | 227° |
| 2026-05-05 15:00 | -6.23358 | -63.71485 | 38045 ft | 499 kts | 227° |
| 2026-05-05 15:01 | -6.27940 | -63.76676 | 38042 ft | 498 kts | 227° |
| 2026-05-05 15:01 | -6.32551 | -63.81898 | 38042 ft | 499 kts | 227° |
| 2026-05-05 15:02 | -6.37163 | -63.87119 | 38043 ft | 499 kts | 227° |
| 2026-05-05 15:02 | -6.41779 | -63.92351 | 38042 ft | 499 kts | 227° |
| 2026-05-05 15:03 | -6.46358 | -63.97547 | 38044 ft | 499 kts | 228° |
| 2026-05-05 15:03 | -6.50960 | -64.02779 | 38045 ft | 499 kts | 227° |
| 2026-05-05 15:04 | -6.55563 | -64.08008 | 38045 ft | 499 kts | 228° |
| 2026-05-05 15:04 | -6.60162 | -64.13232 | 38045 ft | 498 kts | 228° |
| 2026-05-05 15:05 | -6.67032 | -64.21042 | 38046 ft | 498 kts | 228° |
| 2026-05-05 15:06 | -6.71628 | -64.26270 | 38045 ft | 498 kts | 228° |
| 2026-05-05 15:06 | -6.76230 | -64.31498 | 38044 ft | 498 kts | 228° |
| 2026-05-05 15:07 | -6.80803 | -64.36697 | 38045 ft | 498 kts | 228° |
| 2026-05-05 15:07 | -6.85412 | -64.41937 | 38045 ft | 499 kts | 228° |
| 2026-05-05 15:08 | -6.90015 | -64.47174 | 38050 ft | 500 kts | 228° |
| 2026-05-05 15:08 | -6.94615 | -64.52407 | 38050 ft | 501 kts | 228° |
| 2026-05-05 15:09 | -6.99244 | -64.57676 | 38051 ft | 501 kts | 228° |
| 2026-05-05 15:09 | -7.03870 | -64.62943 | 38050 ft | 502 kts | 228° |
| 2026-05-05 15:10 | -7.08495 | -64.68210 | 38051 ft | 502 kts | 228° |
| 2026-05-05 15:10 | -7.13095 | -64.73451 | 38054 ft | 501 kts | 228° |
| 2026-05-05 15:11 | -7.17718 | -64.78719 | 38049 ft | 501 kts | 228° |
| 2026-05-05 15:11 | -7.22336 | -64.83984 | 38050 ft | 501 kts | 228° |
| 2026-05-05 15:12 | -7.26933 | -64.89227 | 38053 ft | 502 kts | 228° |
| 2026-05-05 15:12 | -7.31559 | -64.94505 | 38050 ft | 501 kts | 228° |
| 2026-05-05 15:13 | -7.36158 | -64.99752 | 38047 ft | 501 kts | 228° |
| 2026-05-05 15:13 | -7.40789 | -65.05038 | 38051 ft | 503 kts | 228° |
| 2026-05-05 15:14 | -7.45420 | -65.10327 | 38050 ft | 503 kts | 228° |
| 2026-05-05 15:14 | -7.50025 | -65.15587 | 38047 ft | 503 kts | 228° |
| 2026-05-05 15:15 | -7.54671 | -65.20864 | 38048 ft | 502 kts | 225° |
| 2026-05-05 15:15 | -7.59807 | -65.25652 | 38048 ft | 503 kts | 221° |
| 2026-05-05 15:16 | -7.65094 | -65.30276 | 38048 ft | 502 kts | 220° |
| 2026-05-05 15:16 | -7.70370 | -65.34837 | 38047 ft | 503 kts | 220° |
| 2026-05-05 15:17 | -7.75678 | -65.39435 | 38050 ft | 503 kts | 220° |
| 2026-05-05 15:17 | -7.80997 | -65.44059 | 38051 ft | 503 kts | 220° |
| 2026-05-05 15:18 | -7.86271 | -65.48650 | 38052 ft | 503 kts | 220° |
| 2026-05-05 15:18 | -7.91588 | -65.53282 | 38048 ft | 503 kts | 220° |
| 2026-05-05 15:19 | -7.96889 | -65.57899 | 38048 ft | 504 kts | 220° |
| 2026-05-05 15:19 | -8.02206 | -65.62532 | 38048 ft | 505 kts | 220° |
| 2026-05-05 15:20 | -8.07517 | -65.67162 | 38050 ft | 507 kts | 220° |
| 2026-05-05 15:20 | -8.12872 | -65.71832 | 38050 ft | 508 kts | 220° |
| 2026-05-05 15:21 | -8.18220 | -65.76497 | 38050 ft | 508 kts | 220° |
| 2026-05-05 15:21 | -8.23568 | -65.81164 | 38051 ft | 508 kts | 220° |
| 2026-05-05 15:22 | -8.28886 | -65.85806 | 38048 ft | 508 kts | 220° |
| 2026-05-05 15:22 | -8.34244 | -65.90486 | 38048 ft | 507 kts | 220° |
| 2026-05-05 15:23 | -8.39584 | -65.95150 | 38049 ft | 507 kts | 220° |
| 2026-05-05 15:23 | -8.44918 | -65.99812 | 38047 ft | 507 kts | 220° |
| 2026-05-05 15:24 | -8.50229 | -66.04456 | 38049 ft | 507 kts | 220° |
| 2026-05-05 15:24 | -8.55559 | -66.09117 | 38048 ft | 507 kts | 220° |
| 2026-05-05 15:25 | -8.60898 | -66.13789 | 38047 ft | 507 kts | 220° |
| 2026-05-05 15:25 | -8.65332 | -66.17670 | 38048 ft | 507 kts | 220° |
| 2026-05-05 15:26 | -8.70670 | -66.22344 | 38043 ft | 507 kts | 220° |
| 2026-05-05 15:26 | -8.75995 | -66.27008 | 38046 ft | 507 kts | 220° |
| 2026-05-05 15:27 | -8.81328 | -66.31680 | 38043 ft | 507 kts | 220° |
| 2026-05-05 15:27 | -8.86670 | -66.36364 | 38045 ft | 508 kts | 220° |
| 2026-05-05 15:28 | -8.92004 | -66.41042 | 38045 ft | 508 kts | 220° |
| 2026-05-05 15:28 | -8.97339 | -66.45723 | 38042 ft | 508 kts | 220° |
| 2026-05-05 15:29 | -9.02642 | -66.50377 | 38040 ft | 508 kts | 220° |
| 2026-05-05 15:29 | -9.07970 | -66.55054 | 38042 ft | 506 kts | 220° |
| 2026-05-05 15:30 | -9.13295 | -66.59732 | 38041 ft | 507 kts | 220° |
| 2026-05-05 15:30 | -9.18624 | -66.64414 | 38040 ft | 507 kts | 220° |
| 2026-05-05 15:31 | -9.23957 | -66.69103 | 38042 ft | 507 kts | 220° |
| 2026-05-05 15:31 | -9.29287 | -66.73792 | 38040 ft | 507 kts | 220° |
| 2026-05-05 15:32 | -9.34587 | -66.78454 | 38037 ft | 507 kts | 220° |
| 2026-05-05 15:32 | -9.39912 | -66.83142 | 38036 ft | 507 kts | 220° |
| 2026-05-05 15:33 | -9.45248 | -66.87841 | 38038 ft | 508 kts | 220° |
| 2026-05-05 15:33 | -9.50587 | -66.92544 | 38037 ft | 509 kts | 220° |
| 2026-05-05 15:34 | -9.55933 | -66.97255 | 38037 ft | 509 kts | 220° |
| 2026-05-05 15:34 | -9.61287 | -67.01976 | 38037 ft | 509 kts | 220° |
| 2026-05-05 15:35 | -9.66596 | -67.06659 | 38037 ft | 509 kts | 220° |
| 2026-05-05 15:35 | -9.71937 | -67.11373 | 38037 ft | 509 kts | 220° |
| 2026-05-05 15:36 | -9.77280 | -67.16091 | 38041 ft | 509 kts | 220° |
| 2026-05-05 15:36 | -9.82622 | -67.20809 | 38040 ft | 509 kts | 220° |
| 2026-05-05 15:37 | -9.87965 | -67.25530 | 38041 ft | 509 kts | 220° |
| 2026-05-05 15:37 | -9.93313 | -67.30258 | 38038 ft | 510 kts | 220° |
| 2026-05-05 15:38 | -9.98664 | -67.34991 | 38035 ft | 510 kts | 220° |
| 2026-05-05 15:38 | -10.03976 | -67.39691 | 38037 ft | 510 kts | 220° |
| 2026-05-05 15:39 | -10.09326 | -67.44428 | 38034 ft | 510 kts | 220° |
| 2026-05-05 15:39 | -10.14675 | -67.49166 | 38035 ft | 510 kts | 220° |
| 2026-05-05 15:40 | -10.20025 | -67.53905 | 38034 ft | 510 kts | 220° |
| 2026-05-05 15:40 | -10.25366 | -67.58640 | 38034 ft | 510 kts | 220° |
| 2026-05-05 15:41 | -10.30696 | -67.63367 | 38036 ft | 510 kts | 220° |
| 2026-05-05 15:41 | -10.36045 | -67.68114 | 38037 ft | 510 kts | 220° |
| 2026-05-05 15:42 | -10.41397 | -67.72865 | 38035 ft | 510 kts | 220° |
| 2026-05-05 15:42 | -10.46745 | -67.77615 | 38036 ft | 510 kts | 220° |
| 2026-05-05 15:43 | -10.52091 | -67.82366 | 38035 ft | 510 kts | 220° |
| 2026-05-05 15:43 | -10.57437 | -67.87118 | 38035 ft | 510 kts | 220° |
| 2026-05-05 15:44 | -10.63163 | -67.91265 | 38034 ft | 508 kts | 206° |
| 2026-05-05 15:44 | -10.69846 | -67.93443 | 38036 ft | 505 kts | 185° |
| 2026-05-05 15:45 | -10.76871 | -67.94034 | 38034 ft | 507 kts | 181° |
| 2026-05-05 15:45 | -10.83919 | -67.94335 | 38031 ft | 508 kts | 180° |
| 2026-05-05 15:46 | -10.90987 | -67.94630 | 38031 ft | 508 kts | 181° |
| 2026-05-05 15:46 | -10.98054 | -67.94967 | 38031 ft | 508 kts | 181° |
| 2026-05-05 15:47 | -11.05075 | -67.95323 | 38029 ft | 508 kts | 181° |
| 2026-05-05 15:47 | -11.12133 | -67.95686 | 38031 ft | 508 kts | 181° |
| 2026-05-05 15:48 | -11.19193 | -67.96048 | 38031 ft | 507 kts | 181° |
| 2026-05-05 15:48 | -11.26254 | -67.96408 | 38029 ft | 508 kts | 181° |
| 2026-05-05 15:49 | -11.33265 | -67.96766 | 38026 ft | 508 kts | 181° |
| 2026-05-05 15:49 | -11.40333 | -67.97127 | 38023 ft | 508 kts | 181° |
| 2026-05-05 15:50 | -11.47413 | -67.97489 | 38019 ft | 508 kts | 181° |
| 2026-05-05 15:50 | -11.54441 | -67.97848 | 38022 ft | 508 kts | 181° |
| 2026-05-05 15:51 | -11.61521 | -67.98210 | 38019 ft | 508 kts | 181° |
| 2026-05-05 15:51 | -11.68597 | -67.98572 | 38021 ft | 508 kts | 181° |
| 2026-05-05 15:52 | -11.75627 | -67.98932 | 38020 ft | 508 kts | 181° |
| 2026-05-05 15:52 | -11.82710 | -67.99295 | 38021 ft | 508 kts | 181° |
| 2026-05-05 15:53 | -11.89787 | -67.99657 | 38018 ft | 509 kts | 181° |
| 2026-05-05 15:53 | -11.96877 | -68.00020 | 38022 ft | 510 kts | 181° |
| 2026-05-05 15:54 | -12.03912 | -68.00382 | 38018 ft | 510 kts | 181° |
| 2026-05-05 15:54 | -12.11012 | -68.00747 | 38019 ft | 510 kts | 181° |
| 2026-05-05 15:55 | -12.18103 | -68.01116 | 38019 ft | 510 kts | 181° |
| 2026-05-05 15:55 | -12.25199 | -68.01471 | 38017 ft | 508 kts | 182° |
| 2026-05-05 15:56 | -12.32228 | -68.01824 | 38022 ft | 507 kts | 182° |
| 2026-05-05 15:56 | -12.39279 | -68.02181 | 38029 ft | 507 kts | 182° |
| 2026-05-05 15:56 | -12.42815 | -68.02361 | 38224 ft | 506 kts | 182° |
| 2026-05-05 15:57 | -12.46299 | -68.02538 | 38514 ft | 504 kts | 182° |
| 2026-05-05 15:57 | -12.49800 | -68.02716 | 38756 ft | 503 kts | 182° |
| 2026-05-05 15:57 | -12.53290 | -68.02894 | 38953 ft | 502 kts | 182° |
| 2026-05-05 15:57 | -12.56785 | -68.03071 | 39126 ft | 502 kts | 183° |
| 2026-05-05 15:58 | -12.60281 | -68.03249 | 39291 ft | 502 kts | 183° |
| 2026-05-05 15:58 | -12.63764 | -68.03426 | 39443 ft | 501 kts | 183° |
| 2026-05-05 15:58 | -12.67214 | -68.03601 | 39599 ft | 501 kts | 183° |
| 2026-05-05 15:58 | -12.70693 | -68.03779 | 39748 ft | 500 kts | 183° |
| 2026-05-05 15:59 | -12.74175 | -68.03956 | 39908 ft | 500 kts | 183° |
| 2026-05-05 15:59 | -12.81161 | -68.04312 | 40023 ft | 503 kts | 183° |
| 2026-05-05 16:00 | -12.88124 | -68.04667 | 40023 ft | 503 kts | 183° |
| 2026-05-05 16:00 | -12.95116 | -68.05023 | 40021 ft | 502 kts | 183° |
| 2026-05-05 16:01 | -13.02100 | -68.05379 | 40019 ft | 501 kts | 183° |
| 2026-05-05 16:01 | -13.09079 | -68.05735 | 40019 ft | 501 kts | 183° |
| 2026-05-05 16:02 | -13.16003 | -68.06089 | 40018 ft | 501 kts | 183° |
| 2026-05-05 16:02 | -13.22990 | -68.06445 | 40017 ft | 501 kts | 183° |
| 2026-05-05 16:03 | -13.29916 | -68.06799 | 40007 ft | 500 kts | 183° |
| 2026-05-05 16:03 | -13.36865 | -68.07154 | 40018 ft | 500 kts | 183° |
| 2026-05-05 16:04 | -13.43818 | -68.07511 | 40014 ft | 499 kts | 183° |
| 2026-05-05 16:04 | -13.50787 | -68.07867 | 40005 ft | 500 kts | 183° |
| 2026-05-05 16:05 | -13.57690 | -68.08221 | 40018 ft | 500 kts | 184° |
| 2026-05-05 16:05 | -13.64641 | -68.08576 | 40004 ft | 500 kts | 184° |
| 2026-05-05 16:06 | -13.71598 | -68.08933 | 40008 ft | 500 kts | 184° |
| 2026-05-05 16:06 | -13.78510 | -68.09288 | 40010 ft | 500 kts | 184° |
| 2026-05-05 16:07 | -13.85473 | -68.09646 | 40016 ft | 500 kts | 184° |
| 2026-05-05 16:07 | -13.92435 | -68.10004 | 40015 ft | 500 kts | 184° |
| 2026-05-05 16:08 | -13.99358 | -68.10360 | 40013 ft | 501 kts | 184° |
| 2026-05-05 16:08 | -14.06330 | -68.10718 | 40016 ft | 502 kts | 184° |
| 2026-05-05 16:09 | -14.13297 | -68.11077 | 40017 ft | 501 kts | 184° |
| 2026-05-05 16:09 | -14.20279 | -68.11437 | 40028 ft | 502 kts | 184° |
| 2026-05-05 16:10 | -14.27254 | -68.11796 | 40024 ft | 502 kts | 184° |
| 2026-05-05 16:10 | -14.34232 | -68.12159 | 40037 ft | 502 kts | 184° |
| 2026-05-05 16:11 | -14.41214 | -68.12510 | 40036 ft | 502 kts | 184° |
| 2026-05-05 16:12 | -14.55154 | -68.13210 | 40048 ft | 502 kts | 184° |
| 2026-05-05 16:13 | -14.72533 | -68.14097 | 40050 ft | 500 kts | 184° |
| 2026-05-05 16:13 | -14.79488 | -68.14452 | 40055 ft | 500 kts | 184° |
| 2026-05-05 16:14 | -14.93372 | -68.15163 | 40052 ft | 500 kts | 184° |
| 2026-05-05 16:15 | -15.06107 | -68.15813 | 40044 ft | 500 kts | 184° |
| 2026-05-05 16:16 | -15.20018 | -68.16524 | 40044 ft | 500 kts | 184° |
| 2026-05-05 16:17 | -15.30428 | -68.17059 | 40044 ft | 502 kts | 184° |
| 2026-05-05 16:18 | -15.40878 | -68.17594 | 40051 ft | 502 kts | 184° |
| 2026-05-05 16:19 | -15.51376 | -68.18132 | 40069 ft | 502 kts | 184° |
| 2026-05-05 16:19 | -15.61831 | -68.18673 | 40071 ft | 503 kts | 184° |
| 2026-05-05 16:20 | -15.75801 | -68.19386 | 40101 ft | 501 kts | 184° |
| 2026-05-05 16:22 | -15.93153 | -68.20284 | 40212 ft | 500 kts | 184° |
| 2026-05-05 16:23 | -16.07043 | -68.20988 | 40221 ft | 500 kts | 185° |
| 2026-05-05 16:23 | -16.17448 | -68.21525 | 40249 ft | 500 kts | 185° |
| 2026-05-05 16:24 | -16.24407 | -68.21875 | 40397 ft | 499 kts | 184° |
| 2026-05-05 16:24 | -16.31304 | -68.22217 | 40517 ft | 497 kts | 185° |
| 2026-05-05 16:25 | -16.34756 | -68.22389 | 40588 ft | 497 kts | 185° |
| 2026-05-05 16:25 | -16.41672 | -68.22737 | 40725 ft | 496 kts | 185° |
| 2026-05-05 16:25 | -16.45124 | -68.22911 | 40749 ft | 497 kts | 185° |
| 2026-05-05 16:26 | -16.58878 | -68.23890 | 40751 ft | 494 kts | 188° |
| 2026-05-05 16:27 | -16.65709 | -68.24709 | 40603 ft | 493 kts | 188° |
| 2026-05-05 16:27 | -16.72534 | -68.25503 | 40446 ft | 493 kts | 188° |
| 2026-05-05 16:28 | -16.79322 | -68.26251 | 40289 ft | 493 kts | 188° |
| 2026-05-05 16:28 | -16.86162 | -68.26988 | 40131 ft | 493 kts | 188° |
| 2026-05-05 16:29 | -16.93010 | -68.27723 | 40126 ft | 493 kts | 188° |
| 2026-05-05 16:29 | -16.99813 | -68.28456 | 40134 ft | 493 kts | 188° |
| 2026-05-05 16:30 | -17.06654 | -68.29195 | 40139 ft | 494 kts | 188° |
| 2026-05-05 16:30 | -17.13454 | -68.29931 | 40138 ft | 493 kts | 188° |
| 2026-05-05 16:31 | -17.20290 | -68.30671 | 40138 ft | 493 kts | 188° |
| 2026-05-05 16:31 | -17.27124 | -68.31411 | 40141 ft | 493 kts | 188° |
| 2026-05-05 16:32 | -17.33928 | -68.32149 | 40137 ft | 493 kts | 188° |
| 2026-05-05 16:32 | -17.40766 | -68.32891 | 40137 ft | 493 kts | 188° |
| 2026-05-05 16:33 | -17.47607 | -68.33636 | 40134 ft | 493 kts | 188° |
| 2026-05-05 16:33 | -17.54410 | -68.34365 | 40131 ft | 493 kts | 188° |
| 2026-05-05 16:34 | -17.61255 | -68.35096 | 40125 ft | 493 kts | 188° |
| 2026-05-05 16:34 | -17.68042 | -68.35824 | 40128 ft | 493 kts | 188° |
| 2026-05-05 16:35 | -17.74878 | -68.36560 | 40128 ft | 493 kts | 188° |
| 2026-05-05 16:35 | -17.81720 | -68.37297 | 40122 ft | 493 kts | 188° |
| 2026-05-05 16:36 | -17.88506 | -68.38029 | 40139 ft | 493 kts | 188° |
| 2026-05-05 16:36 | -17.95338 | -68.38766 | 40135 ft | 493 kts | 188° |
| 2026-05-05 16:37 | -18.02182 | -68.39506 | 40124 ft | 493 kts | 188° |
| 2026-05-05 16:37 | -18.08987 | -68.40242 | 40124 ft | 493 kts | 188° |
| 2026-05-05 16:38 | -18.15831 | -68.40968 | 40119 ft | 493 kts | 188° |
| 2026-05-05 16:38 | -18.22678 | -68.41692 | 40126 ft | 494 kts | 188° |
| 2026-05-05 16:39 | -18.29532 | -68.42420 | 40115 ft | 495 kts | 188° |
| 2026-05-05 16:39 | -18.36373 | -68.43149 | 40121 ft | 495 kts | 188° |
| 2026-05-05 16:40 | -18.43230 | -68.43882 | 40107 ft | 495 kts | 188° |
| 2026-05-05 16:40 | -18.50088 | -68.44615 | 40103 ft | 495 kts | 188° |
| 2026-05-05 16:41 | -18.56906 | -68.45344 | 40094 ft | 495 kts | 188° |
| 2026-05-05 16:41 | -18.63753 | -68.46077 | 40104 ft | 494 kts | 188° |
| 2026-05-05 16:42 | -18.70603 | -68.46812 | 40103 ft | 494 kts | 188° |
| 2026-05-05 16:42 | -18.77466 | -68.47547 | 40100 ft | 494 kts | 188° |
| 2026-05-05 16:43 | -18.84271 | -68.48277 | 40115 ft | 494 kts | 188° |
| 2026-05-05 16:43 | -18.91113 | -68.49012 | 40112 ft | 494 kts | 188° |
| 2026-05-05 16:44 | -18.97956 | -68.49748 | 40104 ft | 494 kts | 188° |
| 2026-05-05 16:44 | -19.04800 | -68.50484 | 40110 ft | 494 kts | 188° |
| 2026-05-05 16:45 | -19.11639 | -68.51220 | 40103 ft | 494 kts | 188° |
| 2026-05-05 16:45 | -19.18427 | -68.51951 | 40106 ft | 494 kts | 189° |
| 2026-05-05 16:46 | -19.25259 | -68.52689 | 40107 ft | 493 kts | 189° |
| 2026-05-05 16:46 | -19.32101 | -68.53427 | 40104 ft | 493 kts | 189° |
| 2026-05-05 16:47 | -19.38940 | -68.54166 | 40104 ft | 493 kts | 189° |
| 2026-05-05 16:47 | -19.45773 | -68.54904 | 40109 ft | 493 kts | 189° |
| 2026-05-05 16:48 | -19.52606 | -68.55640 | 40111 ft | 494 kts | 189° |
| 2026-05-05 16:48 | -19.59415 | -68.56378 | 40120 ft | 494 kts | 189° |
| 2026-05-05 16:49 | -19.66247 | -68.57120 | 40120 ft | 494 kts | 189° |
| 2026-05-05 16:49 | -19.73089 | -68.57865 | 40118 ft | 494 kts | 189° |
| 2026-05-05 16:50 | -19.79925 | -68.58607 | 40136 ft | 494 kts | 189° |
| 2026-05-05 16:50 | -19.86775 | -68.59349 | 40123 ft | 495 kts | 189° |
| 2026-05-05 16:51 | -19.93594 | -68.60090 | 40116 ft | 495 kts | 189° |
| 2026-05-05 16:51 | -20.00448 | -68.60836 | 40116 ft | 495 kts | 189° |
| 2026-05-05 16:52 | -20.07302 | -68.61574 | 40108 ft | 494 kts | 190° |
| 2026-05-05 16:52 | -20.14120 | -68.62320 | 40109 ft | 495 kts | 190° |
| 2026-05-05 16:53 | -20.21003 | -68.63077 | 40107 ft | 496 kts | 190° |
| 2026-05-05 16:53 | -20.27884 | -68.63831 | 40106 ft | 497 kts | 189° |
| 2026-05-05 16:54 | -20.34729 | -68.64579 | 40114 ft | 496 kts | 190° |
| 2026-05-05 16:54 | -20.41614 | -68.65334 | 40104 ft | 496 kts | 189° |
| 2026-05-05 16:55 | -20.48465 | -68.66085 | 40103 ft | 498 kts | 189° |
| 2026-05-05 16:55 | -20.55385 | -68.66832 | 40107 ft | 499 kts | 189° |
| 2026-05-05 16:56 | -20.62314 | -68.67557 | 40103 ft | 500 kts | 189° |
| 2026-05-05 16:56 | -20.69216 | -68.68282 | 40108 ft | 500 kts | 189° |
| 2026-05-05 16:57 | -20.76156 | -68.69015 | 40105 ft | 500 kts | 189° |
| 2026-05-05 16:57 | -20.83091 | -68.69748 | 40113 ft | 500 kts | 189° |
| 2026-05-05 16:58 | -20.89971 | -68.70475 | 40108 ft | 500 kts | 190° |
| 2026-05-05 16:58 | -20.96909 | -68.71208 | 40114 ft | 501 kts | 189° |
| 2026-05-05 16:59 | -21.03857 | -68.71944 | 40115 ft | 501 kts | 189° |
| 2026-05-05 16:59 | -21.10793 | -68.72681 | 40117 ft | 499 kts | 190° |
| 2026-05-05 17:00 | -21.17667 | -68.73415 | 40126 ft | 499 kts | 190° |
| 2026-05-05 17:00 | -21.24590 | -68.74143 | 40123 ft | 500 kts | 190° |
| 2026-05-05 17:01 | -21.31515 | -68.74869 | 40122 ft | 499 kts | 190° |
| 2026-05-05 17:01 | -21.38384 | -68.75589 | 40121 ft | 499 kts | 190° |
| 2026-05-05 17:02 | -21.45318 | -68.76318 | 40094 ft | 500 kts | 190° |
| 2026-05-05 17:02 | -21.52240 | -68.77047 | 40093 ft | 499 kts | 190° |
| 2026-05-05 17:03 | -21.59165 | -68.77778 | 40076 ft | 498 kts | 190° |
| 2026-05-05 17:03 | -21.66033 | -68.78623 | 40078 ft | 497 kts | 192° |
| 2026-05-05 17:04 | -21.71737 | -68.79406 | 40075 ft | 497 kts | 192° |
| 2026-05-05 17:04 | -21.79696 | -68.80521 | 40073 ft | 495 kts | 192° |
| 2026-05-05 17:05 | -21.85426 | -68.81320 | 40062 ft | 495 kts | 192° |
| 2026-05-05 17:05 | -21.92221 | -68.82263 | 40062 ft | 495 kts | 192° |
| 2026-05-05 17:06 | -21.99066 | -68.83211 | 40049 ft | 495 kts | 192° |
| 2026-05-05 17:06 | -22.05904 | -68.84157 | 40052 ft | 495 kts | 193° |
| 2026-05-05 17:07 | -22.12751 | -68.85106 | 40042 ft | 496 kts | 193° |
| 2026-05-05 17:07 | -22.19560 | -68.86052 | 40041 ft | 496 kts | 193° |
| 2026-05-05 17:08 | -22.26410 | -68.87015 | 40027 ft | 497 kts | 193° |
| 2026-05-05 17:08 | -22.33278 | -68.87965 | 40021 ft | 498 kts | 193° |
| 2026-05-05 17:09 | -22.40157 | -68.88918 | 40021 ft | 498 kts | 193° |
| 2026-05-05 17:09 | -22.47030 | -68.89874 | 40013 ft | 498 kts | 193° |
| 2026-05-05 17:10 | -22.50460 | -68.90352 | 40344 ft | 497 kts | 193° |
| 2026-05-05 17:10 | -22.53895 | -68.90831 | 40345 ft | 497 kts | 193° |
| 2026-05-05 17:10 | -22.60739 | -68.91787 | 40323 ft | 498 kts | 193° |
| 2026-05-05 17:11 | -22.67571 | -68.92742 | 40240 ft | 497 kts | 194° |
| 2026-05-05 17:11 | -22.74438 | -68.93702 | 40155 ft | 497 kts | 194° |
| 2026-05-05 17:12 | -22.81307 | -68.94665 | 40074 ft | 497 kts | 194° |
| 2026-05-05 17:12 | -22.88163 | -68.95626 | 40020 ft | 497 kts | 194° |
| 2026-05-05 17:13 | -22.94988 | -68.96583 | 40038 ft | 497 kts | 194° |
| 2026-05-05 17:13 | -23.01844 | -68.97546 | 40022 ft | 496 kts | 194° |
| 2026-05-05 17:14 | -23.08694 | -68.98509 | 40024 ft | 496 kts | 194° |
| 2026-05-05 17:14 | -23.15545 | -68.99473 | 40021 ft | 496 kts | 194° |
| 2026-05-05 17:15 | -23.22398 | -69.00439 | 40017 ft | 496 kts | 194° |
| 2026-05-05 17:15 | -23.29264 | -69.01407 | 40012 ft | 496 kts | 194° |
| 2026-05-05 17:16 | -23.36046 | -69.02401 | 40019 ft | 494 kts | 195° |
| 2026-05-05 17:16 | -23.42838 | -69.03592 | 40010 ft | 493 kts | 197° |
| 2026-05-05 17:17 | -23.49631 | -69.04824 | 40016 ft | 494 kts | 196° |
| 2026-05-05 17:17 | -23.56412 | -69.06030 | 40025 ft | 494 kts | 197° |
| 2026-05-05 17:18 | -23.63168 | -69.07214 | 40009 ft | 493 kts | 196° |
| 2026-05-05 17:18 | -23.69964 | -69.08400 | 40010 ft | 494 kts | 196° |
| 2026-05-05 17:19 | -23.76750 | -69.09586 | 40011 ft | 493 kts | 196° |
| 2026-05-05 17:19 | -23.83496 | -69.10770 | 40012 ft | 493 kts | 196° |
| 2026-05-05 17:20 | -23.90268 | -69.11959 | 40012 ft | 493 kts | 197° |
| 2026-05-05 17:20 | -23.97038 | -69.13150 | 40019 ft | 493 kts | 197° |
| 2026-05-05 17:21 | -24.03792 | -69.14338 | 40018 ft | 493 kts | 197° |
| 2026-05-05 17:22 | -24.13976 | -69.16132 | 40029 ft | 493 kts | 197° |
| 2026-05-05 17:22 | -24.20752 | -69.17325 | 40038 ft | 493 kts | 197° |
| 2026-05-05 17:23 | -24.27531 | -69.18516 | 40041 ft | 493 kts | 197° |
| 2026-05-05 17:23 | -24.34269 | -69.19709 | 40047 ft | 493 kts | 197° |
| 2026-05-05 17:24 | -24.41057 | -69.20915 | 40049 ft | 494 kts | 197° |
| 2026-05-05 17:24 | -24.47861 | -69.22122 | 40068 ft | 494 kts | 197° |
| 2026-05-05 17:25 | -24.54657 | -69.23326 | 40059 ft | 495 kts | 197° |
| 2026-05-05 17:25 | -24.61461 | -69.24533 | 40063 ft | 495 kts | 197° |
| 2026-05-05 17:26 | -24.68222 | -69.25735 | 40072 ft | 495 kts | 197° |
| 2026-05-05 17:26 | -24.75029 | -69.26946 | 40062 ft | 495 kts | 197° |
| 2026-05-05 17:27 | -24.81838 | -69.28158 | 40073 ft | 495 kts | 198° |
| 2026-05-05 17:27 | -24.88638 | -69.29370 | 40072 ft | 495 kts | 198° |
| 2026-05-05 17:28 | -24.95432 | -69.30583 | 40083 ft | 495 kts | 198° |
| 2026-05-05 17:28 | -25.02187 | -69.31790 | 40097 ft | 495 kts | 198° |
| 2026-05-05 17:29 | -25.09005 | -69.33011 | 40107 ft | 495 kts | 198° |
| 2026-05-05 17:29 | -25.15804 | -69.34228 | 40104 ft | 494 kts | 198° |
| 2026-05-05 17:30 | -25.22569 | -69.35441 | 40104 ft | 494 kts | 198° |
| 2026-05-05 17:30 | -25.29372 | -69.36662 | 40113 ft | 495 kts | 198° |
| 2026-05-05 17:31 | -25.36139 | -69.37878 | 40111 ft | 494 kts | 198° |
| 2026-05-05 17:31 | -25.42945 | -69.39103 | 40115 ft | 494 kts | 198° |
| 2026-05-05 17:32 | -25.49736 | -69.40326 | 40084 ft | 494 kts | 198° |
| 2026-05-05 17:32 | -25.56419 | -69.41841 | 40083 ft | 483 kts | 206° |
| 2026-05-05 17:33 | -25.62778 | -69.44073 | 40089 ft | 480 kts | 207° |
| 2026-05-05 17:33 | -25.69101 | -69.46449 | 40098 ft | 479 kts | 208° |
| 2026-05-05 17:34 | -25.75422 | -69.48852 | 40091 ft | 479 kts | 208° |
| 2026-05-05 17:34 | -25.81734 | -69.51242 | 40091 ft | 479 kts | 208° |
| 2026-05-05 17:35 | -25.88011 | -69.53613 | 40076 ft | 478 kts | 208° |
| 2026-05-05 17:35 | -25.94323 | -69.55997 | 40069 ft | 478 kts | 208° |
| 2026-05-05 17:36 | -26.00639 | -69.58383 | 40075 ft | 478 kts | 209° |
| 2026-05-05 17:36 | -26.06950 | -69.60771 | 40073 ft | 478 kts | 209° |
| 2026-05-05 17:37 | -26.13208 | -69.63138 | 40082 ft | 478 kts | 209° |
| 2026-05-05 17:37 | -26.19510 | -69.65530 | 40081 ft | 478 kts | 209° |
| 2026-05-05 17:38 | -26.25813 | -69.67926 | 40064 ft | 478 kts | 209° |
| 2026-05-05 17:38 | -26.32091 | -69.70311 | 40060 ft | 477 kts | 209° |
| 2026-05-05 17:39 | -26.38379 | -69.72701 | 40068 ft | 476 kts | 209° |
| 2026-05-05 17:39 | -26.44647 | -69.75091 | 40064 ft | 476 kts | 209° |
| 2026-05-05 17:40 | -26.50920 | -69.77482 | 40071 ft | 475 kts | 209° |
| 2026-05-05 17:40 | -26.57146 | -69.79859 | 40045 ft | 475 kts | 209° |
| 2026-05-05 17:41 | -26.63417 | -69.82258 | 40064 ft | 474 kts | 210° |
| 2026-05-05 17:41 | -26.69658 | -69.84645 | 40056 ft | 473 kts | 210° |
| 2026-05-05 17:42 | -26.75850 | -69.87021 | 40064 ft | 473 kts | 210° |
| 2026-05-05 17:42 | -26.82082 | -69.89413 | 40052 ft | 473 kts | 210° |
| 2026-05-05 17:43 | -26.88303 | -69.91806 | 40050 ft | 472 kts | 210° |
| 2026-05-05 17:43 | -26.94523 | -69.94198 | 40032 ft | 472 kts | 210° |
| 2026-05-05 17:44 | -27.00745 | -69.96593 | 40036 ft | 473 kts | 210° |
| 2026-05-05 17:44 | -27.06926 | -69.98976 | 40034 ft | 472 kts | 210° |
| 2026-05-05 17:45 | -27.13135 | -70.01372 | 40032 ft | 472 kts | 210° |
| 2026-05-05 17:45 | -27.19370 | -70.03779 | 40032 ft | 473 kts | 210° |
| 2026-05-05 17:46 | -27.25595 | -70.06186 | 40032 ft | 472 kts | 210° |
| 2026-05-05 17:46 | -27.31791 | -70.08559 | 40028 ft | 473 kts | 210° |
| 2026-05-05 17:47 | -27.38039 | -70.10898 | 40031 ft | 473 kts | 210° |
| 2026-05-05 17:47 | -27.44295 | -70.13238 | 40037 ft | 473 kts | 210° |
| 2026-05-05 17:48 | -27.50504 | -70.15573 | 40049 ft | 473 kts | 210° |
| 2026-05-05 17:48 | -27.56749 | -70.17929 | 40038 ft | 473 kts | 210° |
| 2026-05-05 17:49 | -27.63000 | -70.20291 | 40045 ft | 473 kts | 210° |
| 2026-05-05 17:49 | -27.69250 | -70.22654 | 40036 ft | 474 kts | 210° |
| 2026-05-05 17:50 | -27.75508 | -70.25031 | 40039 ft | 474 kts | 210° |
| 2026-05-05 17:50 | -27.81783 | -70.27411 | 40053 ft | 474 kts | 210° |
| 2026-05-05 17:51 | -27.88025 | -70.29779 | 40042 ft | 474 kts | 210° |
| 2026-05-05 17:51 | -27.94249 | -70.32143 | 40041 ft | 474 kts | 210° |
| 2026-05-05 17:52 | -28.00502 | -70.34523 | 40046 ft | 474 kts | 210° |
| 2026-05-05 17:52 | -28.06744 | -70.36904 | 40050 ft | 473 kts | 211° |
| 2026-05-05 17:53 | -28.12999 | -70.39292 | 40048 ft | 473 kts | 210° |
| 2026-05-05 17:53 | -28.19245 | -70.41660 | 40056 ft | 473 kts | 211° |
| 2026-05-05 17:54 | -28.24434 | -70.43650 | 40055 ft | 473 kts | 211° |
| 2026-05-05 17:54 | -28.31677 | -70.46433 | 40066 ft | 473 kts | 211° |
| 2026-05-05 17:55 | -28.36874 | -70.48415 | 40053 ft | 474 kts | 211° |
| 2026-05-05 17:55 | -28.43123 | -70.50822 | 40062 ft | 472 kts | 211° |
| 2026-05-05 17:56 | -28.49422 | -70.53071 | 40059 ft | 483 kts | 204° |
| 2026-05-05 17:56 | -28.56199 | -70.54120 | 40055 ft | 497 kts | 198° |
| 2026-05-05 17:57 | -28.63121 | -70.54793 | 40049 ft | 500 kts | 197° |
| 2026-05-05 17:57 | -28.70037 | -70.55390 | 40054 ft | 500 kts | 197° |
| 2026-05-05 17:58 | -28.76976 | -70.56006 | 40041 ft | 498 kts | 197° |
| 2026-05-05 17:58 | -28.83894 | -70.56650 | 40027 ft | 497 kts | 197° |
| 2026-05-05 17:59 | -28.90811 | -70.57303 | 40050 ft | 499 kts | 197° |
| 2026-05-05 17:59 | -28.97721 | -70.57967 | 40067 ft | 499 kts | 198° |
| 2026-05-05 18:00 | -29.04592 | -70.58637 | 40045 ft | 499 kts | 197° |
| 2026-05-05 18:00 | -29.11517 | -70.59310 | 40054 ft | 499 kts | 198° |
| 2026-05-05 18:01 | -29.18446 | -70.59978 | 40057 ft | 499 kts | 198° |
| 2026-05-05 18:01 | -29.25379 | -70.60645 | 40061 ft | 499 kts | 198° |
| 2026-05-05 18:02 | -29.32307 | -70.61321 | 40046 ft | 499 kts | 198° |
| 2026-05-05 18:02 | -29.39222 | -70.61989 | 40032 ft | 499 kts | 198° |
| 2026-05-05 18:03 | -29.46099 | -70.62661 | 40027 ft | 498 kts | 198° |
| 2026-05-05 18:03 | -29.53021 | -70.63339 | 40057 ft | 499 kts | 198° |
| 2026-05-05 18:04 | -29.59938 | -70.64012 | 40037 ft | 498 kts | 198° |
| 2026-05-05 18:04 | -29.66853 | -70.64688 | 40037 ft | 498 kts | 198° |
| 2026-05-05 18:05 | -29.73770 | -70.65371 | 40036 ft | 498 kts | 198° |
| 2026-05-05 18:05 | -29.80654 | -70.66044 | 40034 ft | 499 kts | 198° |
| 2026-05-05 18:06 | -29.87581 | -70.66720 | 40014 ft | 499 kts | 198° |
| 2026-05-05 18:06 | -29.94484 | -70.67407 | 40032 ft | 497 kts | 198° |
| 2026-05-05 18:07 | -30.01356 | -70.68118 | 40019 ft | 499 kts | 198° |
| 2026-05-05 18:07 | -30.08286 | -70.68787 | 40042 ft | 500 kts | 197° |
| 2026-05-05 18:08 | -30.15239 | -70.69451 | 40024 ft | 500 kts | 197° |
| 2026-05-05 18:08 | -30.22131 | -70.70120 | 40021 ft | 500 kts | 198° |
| 2026-05-05 18:09 | -30.29060 | -70.70799 | 40025 ft | 499 kts | 198° |
| 2026-05-05 18:09 | -30.35986 | -70.71490 | 40034 ft | 498 kts | 197° |
| 2026-05-05 18:10 | -30.42908 | -70.72184 | 40030 ft | 498 kts | 197° |
| 2026-05-05 18:10 | -30.49822 | -70.72876 | 40031 ft | 499 kts | 197° |
| 2026-05-05 18:11 | -30.56698 | -70.73571 | 40031 ft | 498 kts | 197° |
| 2026-05-05 18:11 | -30.63630 | -70.74257 | 40044 ft | 499 kts | 197° |
| 2026-05-05 18:12 | -30.70523 | -70.74912 | 40013 ft | 501 kts | 197° |
| 2026-05-05 18:12 | -30.77492 | -70.75586 | 40006 ft | 502 kts | 197° |
| 2026-05-05 18:13 | -30.84461 | -70.76259 | 39996 ft | 500 kts | 197° |
| 2026-05-05 18:13 | -30.91403 | -70.76936 | 40014 ft | 500 kts | 197° |
| 2026-05-05 18:14 | -30.98304 | -70.77611 | 40015 ft | 501 kts | 197° |
| 2026-05-05 18:14 | -31.05216 | -70.78285 | 40026 ft | 492 kts | 197° |
| 2026-05-05 18:15 | -31.12066 | -70.78972 | 39564 ft | 493 kts | 197° |
| 2026-05-05 18:15 | -31.15480 | -70.79296 | 38989 ft | 491 kts | 197° |
| 2026-05-05 18:15 | -31.18852 | -70.79619 | 38341 ft | 492 kts | 197° |
| 2026-05-05 18:15 | -31.22261 | -70.79951 | 37683 ft | 491 kts | 197° |
| 2026-05-05 18:16 | -31.25657 | -70.80283 | 37053 ft | 489 kts | 197° |
| 2026-05-05 18:16 | -31.29042 | -70.80608 | 36479 ft | 487 kts | 196° |
| 2026-05-05 18:16 | -31.32419 | -70.80937 | 35867 ft | 485 kts | 196° |
| 2026-05-05 18:16 | -31.35779 | -70.81265 | 35204 ft | 485 kts | 195° |
| 2026-05-05 18:17 | -31.39155 | -70.81604 | 34474 ft | 487 kts | 195° |
| 2026-05-05 18:17 | -31.42554 | -70.81946 | 33725 ft | 489 kts | 194° |
| 2026-05-05 18:17 | -31.45939 | -70.82285 | 32903 ft | 485 kts | 194° |
| 2026-05-05 18:17 | -31.49312 | -70.82611 | 32189 ft | 488 kts | 194° |
| 2026-05-05 18:18 | -31.52671 | -70.82933 | 31457 ft | 491 kts | 192° |
| 2026-05-05 18:18 | -31.56084 | -70.83260 | 30653 ft | 493 kts | 193° |
| 2026-05-05 18:18 | -31.59511 | -70.83607 | 29799 ft | 494 kts | 193° |
| 2026-05-05 18:18 | -31.62932 | -70.83961 | 28973 ft | 492 kts | 193° |
| 2026-05-05 18:19 | -31.66328 | -70.84307 | 28410 ft | 486 kts | 192° |
| 2026-05-05 18:19 | -31.69690 | -70.84639 | 27838 ft | 482 kts | 192° |
| 2026-05-05 18:19 | -31.73029 | -70.84966 | 27251 ft | 479 kts | 192° |
| 2026-05-05 18:19 | -31.76370 | -70.85062 | 26652 ft | 482 kts | 187° |
| 2026-05-05 18:20 | -31.79721 | -70.84988 | 26049 ft | 479 kts | 186° |
| 2026-05-05 18:20 | -31.82996 | -70.84884 | 25493 ft | 476 kts | 186° |
| 2026-05-05 18:20 | -31.86305 | -70.84766 | 24929 ft | 472 kts | 185° |
| 2026-05-05 18:20 | -31.89583 | -70.84643 | 24358 ft | 469 kts | 185° |
| 2026-05-05 18:21 | -31.92847 | -70.84518 | 23791 ft | 466 kts | 185° |
| 2026-05-05 18:21 | -31.96085 | -70.84391 | 23186 ft | 463 kts | 185° |
| 2026-05-05 18:21 | -31.99252 | -70.84261 | 22604 ft | 459 kts | 184° |
| 2026-05-05 18:21 | -32.02435 | -70.84130 | 22026 ft | 454 kts | 184° |
| 2026-05-05 18:22 | -32.05581 | -70.84004 | 21483 ft | 449 kts | 183° |
| 2026-05-05 18:22 | -32.08691 | -70.83870 | 20941 ft | 446 kts | 183° |
| 2026-05-05 18:22 | -32.11797 | -70.83741 | 20385 ft | 445 kts | 183° |
| 2026-05-05 18:22 | -32.14847 | -70.83620 | 19839 ft | 443 kts | 183° |
| 2026-05-05 18:23 | -32.17915 | -70.83491 | 19260 ft | 439 kts | 182° |
| 2026-05-05 18:23 | -32.20975 | -70.83357 | 18735 ft | 439 kts | 182° |
| 2026-05-05 18:23 | -32.24019 | -70.83235 | 18146 ft | 437 kts | 182° |
| 2026-05-05 18:23 | -32.27060 | -70.83115 | 17521 ft | 435 kts | 182° |
| 2026-05-05 18:24 | -32.30061 | -70.82991 | 16955 ft | 429 kts | 182° |
| 2026-05-05 18:24 | -32.33033 | -70.82874 | 16409 ft | 424 kts | 181° |
| 2026-05-05 18:24 | -32.35973 | -70.82762 | 15828 ft | 420 kts | 181° |
| 2026-05-05 18:24 | -32.38889 | -70.82644 | 15279 ft | 417 kts | 181° |
| 2026-05-05 18:25 | -32.41790 | -70.82526 | 14724 ft | 415 kts | 181° |
| 2026-05-05 18:25 | -32.43704 | -70.82444 | 14348 ft | 413 kts | 180° |
| 2026-05-05 18:25 | -32.47497 | -70.82286 | 13595 ft | 410 kts | 180° |
| 2026-05-05 18:25 | -32.50350 | -70.82162 | 13016 ft | 405 kts | 181° |
| 2026-05-05 18:26 | -32.53145 | -70.82043 | 12442 ft | 400 kts | 180° |
| 2026-05-05 18:26 | -32.55910 | -70.81920 | 12076 ft | 392 kts | 180° |
| 2026-05-05 18:26 | -32.58582 | -70.81806 | 11951 ft | 375 kts | 180° |
| 2026-05-05 18:26 | -32.61129 | -70.81706 | 11829 ft | 358 kts | 180° |
| 2026-05-05 18:27 | -32.63571 | -70.81603 | 11708 ft | 346 kts | 180° |
| 2026-05-05 18:27 | -32.65934 | -70.81504 | 11552 ft | 333 kts | 180° |
| 2026-05-05 18:27 | -32.68211 | -70.81412 | 11403 ft | 321 kts | 180° |
| 2026-05-05 18:27 | -32.70382 | -70.81324 | 11237 ft | 310 kts | 180° |
| 2026-05-05 18:28 | -32.74551 | -70.81156 | 10935 ft | 290 kts | 180° |
| 2026-05-05 18:28 | -32.76568 | -70.81075 | 10655 ft | 289 kts | 180° |
| 2026-05-05 18:28 | -32.78566 | -70.81039 | 10365 ft | 286 kts | 184° |
| 2026-05-05 18:29 | -32.80539 | -70.81182 | 10134 ft | 283 kts | 187° |
| 2026-05-05 18:29 | -32.82520 | -70.81376 | 9985 ft | 290 kts | 187° |
| 2026-05-05 18:29 | -32.84562 | -70.81582 | 9841 ft | 294 kts | 187° |
| 2026-05-05 18:29 | -32.86575 | -70.81783 | 9400 ft | 294 kts | 187° |
| 2026-05-05 18:30 | -32.88608 | -70.81986 | 9050 ft | 291 kts | 186° |
| 2026-05-05 18:30 | -32.90621 | -70.82182 | 8792 ft | 289 kts | 186° |
| 2026-05-05 18:30 | -32.92623 | -70.82375 | 8522 ft | 286 kts | 186° |
| 2026-05-05 18:30 | -32.94609 | -70.82568 | 8315 ft | 285 kts | 186° |
| 2026-05-05 18:31 | -32.96582 | -70.82765 | 8058 ft | 283 kts | 186° |
| 2026-05-05 18:31 | -32.98544 | -70.82959 | 7802 ft | 281 kts | 185° |
| 2026-05-05 18:31 | -33.00473 | -70.82951 | 7528 ft | 280 kts | 174° |
| 2026-05-05 18:31 | -33.02400 | -70.82622 | 7259 ft | 278 kts | 169° |
| 2026-05-05 18:32 | -33.04299 | -70.82240 | 6986 ft | 275 kts | 171° |
| 2026-05-05 18:32 | -33.06192 | -70.82029 | 6753 ft | 272 kts | 175° |
| 2026-05-05 18:32 | -33.08078 | -70.81905 | 6507 ft | 271 kts | 176° |
| 2026-05-05 18:32 | -33.09951 | -70.81796 | 6249 ft | 269 kts | 176° |
| 2026-05-05 18:33 | -33.11834 | -70.81690 | 5996 ft | 269 kts | 176° |
| 2026-05-05 18:33 | -33.13694 | -70.81581 | 5769 ft | 265 kts | 177° |
| 2026-05-05 18:33 | -33.15507 | -70.81479 | 5497 ft | 263 kts | 177° |
| 2026-05-05 18:33 | -33.17326 | -70.81372 | 5242 ft | 259 kts | 177° |
| 2026-05-05 18:34 | -33.19118 | -70.81268 | 5042 ft | 256 kts | 177° |
| 2026-05-05 18:34 | -33.20891 | -70.81176 | 4821 ft | 252 kts | 178° |
| 2026-05-05 18:34 | -33.22605 | -70.81122 | 4690 ft | 240 kts | 178° |
| 2026-05-05 18:34 | -33.24226 | -70.81038 | 4469 ft | 225 kts | 176° |
| 2026-05-05 18:35 | -33.25757 | -70.80945 | 4219 ft | 221 kts | 177° |
| 2026-05-05 18:35 | -33.27263 | -70.80871 | 4070 ft | 211 kts | 178° |
| 2026-05-05 18:35 | -33.28702 | -70.80806 | 3850 ft | 205 kts | 178° |
| 2026-05-05 18:35 | -33.30121 | -70.80738 | 3423 ft | 201 kts | 176° |
| 2026-05-05 18:36 | -33.31481 | -70.80674 | 2993 ft | 190 kts | 179° |
| 2026-05-05 18:36 | -33.32776 | -70.80612 | 2572 ft | 181 kts | 179° |
| 2026-05-05 18:36 | -33.34014 | -70.80541 | 2277 ft | 176 kts | 179° |
| 2026-05-05 18:36 | -33.35213 | -70.80491 | 2044 ft | 167 kts | 179° |
| 2026-05-05 18:37 | -33.36312 | -70.80431 | 1767 ft | 152 kts | 176° |
| 2026-05-05 18:37 | -33.37311 | -70.80372 | 1623 ft | 137 kts | 175° |
| 2026-05-05 18:37 | -33.38211 | -70.80321 | 1578 ft | 116 kts | 177° |
| 2026-05-05 18:37 | -33.38910 | -70.80282 | 1580 ft | 87 kts | 178° |
| 2026-05-05 18:38 | -33.39457 | -70.80253 | 1577 ft | 75 kts | 177° |
| 2026-05-05 18:38 | -33.39901 | -70.80190 | 1578 ft | 52 kts | 163° |
| 2026-05-05 18:38 | -33.40066 | -70.80086 | 1575 ft | 8 kts | 146° |
| 2026-05-05 18:38 | -33.40114 | -70.80034 | 1573 ft | 10 kts | 140° |
| 2026-05-05 18:39 | -33.40149 | -70.79989 | 1572 ft | 12 kts | 124° |
| 2026-05-05 18:39 | -33.40227 | -70.79898 | 1571 ft | 12 kts | 163° |
| 2026-05-05 18:39 | -33.40319 | -70.79885 | 1571 ft | 14 kts | 177° |
| 2026-05-05 18:39 | -33.40425 | -70.79881 | 1571 ft | 16 kts | 174° |
| 2026-05-05 18:40 | -33.40481 | -70.79836 | 1571 ft | 15 kts | 110° |
| 2026-05-05 18:40 | -33.40481 | -70.79709 | 1570 ft | 11 kts | 88° |
| 2026-05-05 18:40 | -33.40438 | -70.79676 | 1570 ft | 8 kts | 6° |
| 2026-05-05 18:40 | -33.40395 | -70.79677 | 1570 ft | 4 kts | 357° |
| 2026-05-05 18:41 | -33.40389 | -70.79677 | 1570 ft | 0 kts | 357° |